Observation data for Crane on 10/17/2020      Previous  Date  Next       Current Mesonet Observations  Soil Data  Daily Summary Page  Observations in Plain Language
KCR2 170500Z 12005KT 13/00 A3016 RMK A01 T01310001  RH  041%=      5-min Rain = 0
KCR2 170501Z 12005KT 13/00 A3016 RMK A01 T01310001  RH  041%=      5-min Rain = 0
KCR2 170502Z 12005KT 13/00 A3016 RMK A01 T01310001  RH  041%=      5-min Rain = 0
KCR2 170503Z 12005KT 13/00 A3016 RMK A01 T01300001  RH  041%=      5-min Rain = 0
KCR2 170504Z 12005KT 13/00 A3016 RMK A01 T01290000  RH  041%=      5-min Rain = 0
KCR2 170505Z 13005KT 13/00 A3016 RMK A01 T01300001  RH  041%=      5-min Rain = 0
KCR2 170506Z 12005KT 13/00 A3016 RMK A01 T01290000  RH  041%=      5-min Rain = 0
KCR2 170507Z 13005KT 13/00 A3016 RMK A01 T01290000  RH  041%=      5-min Rain = 0
KCR2 170508Z 13005KT 13/00 A3016 RMK A01 T01290000  RH  041%=      5-min Rain = 0
KCR2 170509Z 13005KT 13/00 A3016 RMK A01 T01290000  RH  041%=      5-min Rain = 0
KCR2 170510Z 13005KT 13/00 A3016 RMK A01 T01280000  RH  041%=      5-min Rain = 0
KCR2 170511Z 13005KT 13/00 A3016 RMK A01 T01280000  RH  041%=      5-min Rain = 0
KCR2 170512Z 13005KT 13/00 A3016 RMK A01 T01280000  RH  041%=      5-min Rain = 0
KCR2 170513Z 13005KT 13/00 A3016 RMK A01 T01280000  RH  041%=      5-min Rain = 0
KCR2 170514Z 13005KT 13/00 A3016 RMK A01 T012800-0  RH  041%=      5-min Rain = 0
KCR2 170515Z 13005KT 13/00 A3016 RMK A01 T01280000  RH  041%=      5-min Rain = 0
KCR2 170516Z 13004KT 13/00 A3016 RMK A01 T01280000  RH  041%=      5-min Rain = 0
KCR2 170517Z 13005KT 13/00 A3016 RMK A01 T012700-0  RH  042%=      5-min Rain = 0
KCR2 170518Z 13005KT 13/00 A3016 RMK A01 T012700-0  RH  042%=      5-min Rain = 0
KCR2 170519Z 13005KT 13/M00 A3016 RMK A01 T01261001  RH  042%=      5-min Rain = 0
KCR2 170520Z 13005KT 13/00 A3016 RMK A01 T012600-0  RH  042%=      5-min Rain = 0
KCR2 170521Z 13005KT 13/M00 A3016 RMK A01 T01261001  RH  042%=      5-min Rain = 0
KCR2 170522Z 13005KT 13/M00 A3015 RMK A01 T01251001  RH  042%=      5-min Rain = 0
KCR2 170523Z 13005KT 13/M00 A3015 RMK A01 T01251001  RH  042%=      5-min Rain = 0
KCR2 170524Z 13005KT 12/M00 A3015 RMK A01 T01241001  RH  042%=      5-min Rain = 0
KCR2 170525Z 13005KT 12/M00 A3015 RMK A01 T01241001  RH  042%=      5-min Rain = 0
KCR2 170526Z 13005KT 12/M00 A3015 RMK A01 T01241001  RH  042%=      5-min Rain = 0
KCR2 170527Z 14005KT 12/M00 A3015 RMK A01 T01241001  RH  042%=      5-min Rain = 0
KCR2 170528Z 14005KT 12/M00 A3015 RMK A01 T01241001  RH  042%=      5-min Rain = 0
KCR2 170529Z 14005KT 12/M00 A3015 RMK A01 T01241001  RH  042%=      5-min Rain = 0
KCR2 170530Z 14006KT 12/M00 A3015 RMK A01 T01241001  RH  042%=      5-min Rain = 0
KCR2 170531Z 14006KT 12/M00 A3015 RMK A01 T01231001  RH  042%=      5-min Rain = 0
KCR2 170532Z 14006KT 12/M00 A3015 RMK A01 T01241001  RH  042%=      5-min Rain = 0
KCR2 170533Z 14006KT 13/M00 A3015 RMK A01 T01251001  RH  042%=      5-min Rain = 0
KCR2 170534Z 14006KT 13/00 A3015 RMK A01 T012600-0  RH  042%=      5-min Rain = 0
KCR2 170535Z 14005KT 13/00 A3015 RMK A01 T012600-0  RH  042%=      5-min Rain = 0
KCR2 170536Z 15005KT 13/00 A3015 RMK A01 T01270000  RH  042%=      5-min Rain = 0
KCR2 170537Z 14005KT 13/00 A3015 RMK A01 T01280000  RH  042%=      5-min Rain = 0
KCR2 170538Z 14005KT 13/00 A3015 RMK A01 T012800-0  RH  041%=      5-min Rain = 0
KCR2 170539Z 14005KT 13/00 A3015 RMK A01 T012800-0  RH  041%=      5-min Rain = 0
KCR2 170540Z 14005KT 13/M00 A3015 RMK A01 T01281001  RH  041%=      5-min Rain = 0
KCR2 170541Z 14006KT 13/M00 A3015 RMK A01 T01281001  RH  041%=      5-min Rain = 0
KCR2 170542Z 14006KT 13/00 A3015 RMK A01 T012800-0  RH  041%=      5-min Rain = 0
KCR2 170543Z 14005KT 13/M00 A3015 RMK A01 T01281001  RH  041%=      5-min Rain = 0
KCR2 170544Z 14006KT 13/M00 A3015 RMK A01 T01281001  RH  041%=      5-min Rain = 0
KCR2 170545Z 14005KT 13/00 A3015 RMK A01 T012800-0  RH  041%=      5-min Rain = 0
KCR2 170546Z 14005KT 13/00 A3014 RMK A01 T01280000  RH  041%=      5-min Rain = 0
KCR2 170547Z 14005KT 13/M00 A3014 RMK A01 T01281001  RH  041%=      5-min Rain = 0
KCR2 170548Z 14005KT 13/00 A3014 RMK A01 T012900-0  RH  041%=      5-min Rain = 0
KCR2 170549Z 14005KT 13/00 A3014 RMK A01 T012900-0  RH  041%=      5-min Rain = 0
KCR2 170550Z 14005KT 13/00 A3014 RMK A01 T01290000  RH  041%=      5-min Rain = 0
KCR2 170551Z 14005KT 13/00 A3014 RMK A01 T01290000  RH  041%=      5-min Rain = 0
KCR2 170552Z 14005KT 13/00 A3014 RMK A01 T01300000  RH  041%=      5-min Rain = 0
KCR2 170553Z 14005KT 13/00 A3014 RMK A01 T01300000  RH  041%=      5-min Rain = 0
KCR2 170554Z 14005KT 13/00 A3014 RMK A01 T012900-0  RH  041%=      5-min Rain = 0
KCR2 170555Z 15005KT 13/00 A3014 RMK A01 T01290000  RH  041%=      5-min Rain = 0
KCR2 170556Z 14005KT 13/00 A3014 RMK A01 T01290001  RH  041%=      5-min Rain = 0
KCR2 170557Z 14005KT 13/M00 A3014 RMK A01 T01291001  RH  041%=      5-min Rain = 0
KCR2 170558Z 14005KT 13/M00 A3014 RMK A01 T01271002  RH  041%=      5-min Rain = 0
KCR2 170559Z 14005KT 13/M00 A3014 RMK A01 T01251002  RH  041%=      5-min Rain = 0
KCR2 170600Z 14005KT 12/M00 A3014 RMK A01 T01241002  RH  042%=      5-min Rain = 0
KCR2 170601Z 14005KT 12/M00 A3014 RMK A01 T01241002  RH  042%=      5-min Rain = 0
KCR2 170602Z 14004KT 12/M00 A3014 RMK A01 T01241002  RH  042%=      5-min Rain = 0
KCR2 170603Z 14004KT 12/M00 A3014 RMK A01 T01231002  RH  042%=      5-min Rain = 0
KCR2 170604Z 14004KT 12/M00 A3014 RMK A01 T01231003  RH  042%=      5-min Rain = 0
KCR2 170605Z 14004KT 12/M00 A3014 RMK A01 T01221003  RH  042%=      5-min Rain = 0
KCR2 170606Z 14004KT 12/M00 A3013 RMK A01 T01201004  RH  042%=      5-min Rain = 0
KCR2 170607Z 14004KT 12/M01 A3013 RMK A01 T01191005  RH  042%=      5-min Rain = 0
KCR2 170608Z 15004KT 12/M00 A3013 RMK A01 T01181004  RH  043%=      5-min Rain = 0
KCR2 170609Z 15004KT 12/M00 A3013 RMK A01 T01201001  RH  043%=      5-min Rain = 0
KCR2 170610Z 15004KT 12/M00 A3013 RMK A01 T01221002  RH  043%=      5-min Rain = 0
KCR2 170611Z 15004KT 12/M00 A3013 RMK A01 T01221002  RH  042%=      5-min Rain = 0
KCR2 170612Z 15004KT 12/M00 A3013 RMK A01 T01231001  RH  042%=      5-min Rain = 0
KCR2 170613Z 16005KT 12/M00 A3013 RMK A01 T01231002  RH  042%=      5-min Rain = 0
KCR2 170614Z 16005KT 12/00 A3013 RMK A01 T01240000  RH  042%=      5-min Rain = 0
KCR2 170615Z 16005KT 13/00 A3013 RMK A01 T01260002  RH  042%=      5-min Rain = 0
KCR2 170616Z 16005KT 13/00 A3013 RMK A01 T01290003  RH  042%=      5-min Rain = 0
KCR2 170617Z 16006KT 13/01 A3013 RMK A01 T01320006  RH  042%=      5-min Rain = 0
KCR2 170618Z 16007KT 14/01 A3013 RMK A01 T01370008  RH  041%=      5-min Rain = 0
KCR2 170619Z 17007KT 15/01 A3013 RMK A01 T01450014  RH  041%=      5-min Rain = 0
KCR2 170620Z 16007KT 15/02 A3013 RMK A01 T01530016  RH  039%=      5-min Rain = 0
KCR2 170621Z 16008KT 16/02 A3013 RMK A01 T01580015  RH  038%=      5-min Rain = 0
KCR2 170622Z 17008KT 16/02 A3013 RMK A01 T01610015  RH  037%=      5-min Rain = 0
KCR2 170623Z 16007KT 16/01 A3013 RMK A01 T01630014  RH  037%=      5-min Rain = 0
KCR2 170624Z 16008KT 16/01 A3013 RMK A01 T01640014  RH  036%=      5-min Rain = 0
KCR2 170625Z 17007KT 17/01 A3013 RMK A01 T01660014  RH  036%=      5-min Rain = 0
KCR2 170626Z 17008KT 17/01 A3013 RMK A01 T01660014  RH  036%=      5-min Rain = 0
KCR2 170627Z 16008KT 17/01 A3013 RMK A01 T01650013  RH  036%=      5-min Rain = 0
KCR2 170628Z 16007KT 17/01 A3013 RMK A01 T01660013  RH  036%=      5-min Rain = 0
KCR2 170629Z 16007KT 17/01 A3013 RMK A01 T01650013  RH  036%=      5-min Rain = 0
KCR2 170630Z 16008KT 17/01 A3013 RMK A01 T01650013  RH  036%=      5-min Rain = 0
KCR2 170631Z 16008KT 17/01 A3012 RMK A01 T01650014  RH  036%=      5-min Rain = 0
KCR2 170632Z 17008KT 17/01 A3012 RMK A01 T01650014  RH  036%=      5-min Rain = 0
KCR2 170633Z 17007KT 17/01 A3012 RMK A01 T01650014  RH  036%=      5-min Rain = 0
KCR2 170634Z 17008KT 17/01 A3012 RMK A01 T01650014  RH  036%=      5-min Rain = 0
KCR2 170635Z 17008KT 17/01 A3012 RMK A01 T01650014  RH  036%=      5-min Rain = 0
KCR2 170636Z 16008KT 17/01 A3012 RMK A01 T01650014  RH  036%=      5-min Rain = 0
KCR2 170637Z 16007KT 17/02 A3012 RMK A01 T01660015  RH  036%=      5-min Rain = 0
KCR2 170638Z 17007KT 17/01 A3012 RMK A01 T01650014  RH  036%=      5-min Rain = 0
KCR2 170639Z 17007KT 17/02 A3012 RMK A01 T01650015  RH  036%=      5-min Rain = 0
KCR2 170640Z 16007KT 17/02 A3012 RMK A01 T01650015  RH  036%=      5-min Rain = 0
KCR2 170641Z 16007KT 17/02 A3012 RMK A01 T01650016  RH  037%=      5-min Rain = 0
KCR2 170642Z 17007KT 16/02 A3012 RMK A01 T01640015  RH  037%=      5-min Rain = 0
KCR2 170643Z 16007KT 16/02 A3012 RMK A01 T01640016  RH  037%=      5-min Rain = 0
KCR2 170644Z 16008KT 16/02 A3012 RMK A01 T01640016  RH  037%=      5-min Rain = 0
KCR2 170645Z 17007KT 16/02 A3012 RMK A01 T01640017  RH  037%=      5-min Rain = 0
KCR2 170646Z 17007KT 16/02 A3012 RMK A01 T01640017  RH  037%=      5-min Rain = 0
KCR2 170647Z 17006KT 16/02 A3012 RMK A01 T01640017  RH  037%=      5-min Rain = 0
KCR2 170648Z 17006KT 16/02 A3012 RMK A01 T01630017  RH  037%=      5-min Rain = 0
KCR2 170649Z 17006KT 16/02 A3012 RMK A01 T01630018  RH  038%=      5-min Rain = 0
KCR2 170650Z 17006KT 16/02 A3012 RMK A01 T01630017  RH  037%=      5-min Rain = 0
KCR2 170651Z 17007KT 16/02 A3012 RMK A01 T01630017  RH  037%=      5-min Rain = 0
KCR2 170652Z 17006KT 16/02 A3012 RMK A01 T01630018  RH  038%=      5-min Rain = 0
KCR2 170653Z 16006KT 16/02 A3011 RMK A01 T01620018  RH  038%=      5-min Rain = 0
KCR2 170654Z 16006KT 16/02 A3011 RMK A01 T01610018  RH  038%=      5-min Rain = 0
KCR2 170655Z 17007KT 16/02 A3011 RMK A01 T01610019  RH  038%=      5-min Rain = 0
KCR2 170656Z 16007KT 16/02 A3011 RMK A01 T01610019  RH  038%=      5-min Rain = 0
KCR2 170657Z 17007KT 16/02 A3011 RMK A01 T01610020  RH  039%=      5-min Rain = 0
KCR2 170658Z 17006KT 16/02 A3011 RMK A01 T01610021  RH  039%=      5-min Rain = 0
KCR2 170659Z 17006KT 16/02 A3011 RMK A01 T01610021  RH  039%=      5-min Rain = 0
KCR2 170700Z 17006KT 16/02 A3011 RMK A01 T01600021  RH  039%=      5-min Rain = 0
KCR2 170701Z 17006KT 16/02 A3011 RMK A01 T01600021  RH  039%=      5-min Rain = 0
KCR2 170702Z 17006KT 16/02 A3011 RMK A01 T01600021  RH  039%=      5-min Rain = 0
KCR2 170703Z 17007KT 16/02 A3011 RMK A01 T01600023  RH  040%=      5-min Rain = 0
KCR2 170704Z 17006KT 16/02 A3011 RMK A01 T01600024  RH  040%=      5-min Rain = 0
KCR2 170705Z 17006KT 16/02 A3011 RMK A01 T01600023  RH  040%=      5-min Rain = 0
KCR2 170706Z 17006KT 16/03 A3011 RMK A01 T01610025  RH  040%=      5-min Rain = 0
KCR2 170707Z 18006KT 16/02 A3011 RMK A01 T01600024  RH  040%=      5-min Rain = 0
KCR2 170708Z 18007KT 16/03 A3011 RMK A01 T01600025  RH  040%=      5-min Rain = 0
KCR2 170709Z 17006KT 16/03 A3011 RMK A01 T01600027  RH  041%=      5-min Rain = 0
KCR2 170710Z 17007KT 16/03 A3011 RMK A01 T01610027  RH  041%=      5-min Rain = 0
KCR2 170711Z 17005KT 16/03 A3011 RMK A01 T01610028  RH  041%=      5-min Rain = 0
KCR2 170712Z 18006KT 16/03 A3011 RMK A01 T01610027  RH  041%=      5-min Rain = 0
KCR2 170713Z 17006KT 16/03 A3011 RMK A01 T01600028  RH  041%=      5-min Rain = 0
KCR2 170714Z 17007KT 16/03 A3011 RMK A01 T01600029  RH  041%=      5-min Rain = 0
KCR2 170715Z 18007KT 16/03 A3011 RMK A01 T01610029  RH  041%=      5-min Rain = 0
KCR2 170716Z 18007KT 16/03 A3011 RMK A01 T01600029  RH  041%=      5-min Rain = 0
KCR2 170717Z 17006KT 16/03 A3011 RMK A01 T01610030  RH  042%=      5-min Rain = 0
KCR2 170718Z 18006KT 16/03 A301 RMK A01 T01610030  RH  042%=      5-min Rain = 0
KCR2 170719Z 18007KT 16/03 A301 RMK A01 T01610030  RH  042%=      5-min Rain = 0
KCR2 170720Z 17006KT 16/03 A301 RMK A01 T01600030  RH  042%=      5-min Rain = 0
KCR2 170721Z 17006KT 16/03 A301 RMK A01 T01600031  RH  042%=      5-min Rain = 0
KCR2 170722Z 18006KT 16/03 A301 RMK A01 T01600031  RH  042%=      5-min Rain = 0
KCR2 170723Z 18006KT 16/03 A301 RMK A01 T01600031  RH  042%=      5-min Rain = 0
KCR2 170724Z 18006KT 16/03 A301 RMK A01 T01590031  RH  042%=      5-min Rain = 0
KCR2 170725Z 18007KT 16/03 A301 RMK A01 T01590032  RH  043%=      5-min Rain = 0
KCR2 170726Z 18006KT 16/03 A301 RMK A01 T01590032  RH  043%=      5-min Rain = 0
KCR2 170727Z 18007KT 16/03 A301 RMK A01 T01580032  RH  043%=      5-min Rain = 0
KCR2 170728Z 18007KT 16/03 A301 RMK A01 T01580033  RH  043%=      5-min Rain = 0
KCR2 170729Z 18006KT 16/03 A301 RMK A01 T01590033  RH  043%=      5-min Rain = 0
KCR2 170730Z 18006KT 16/03 A301 RMK A01 T01590033  RH  043%=      5-min Rain = 0
KCR2 170731Z 18007KT 16/03 A301 RMK A01 T01590034  RH  043%=      5-min Rain = 0
KCR2 170732Z 18007KT 16/03 A301 RMK A01 T01580034  RH  043%=      5-min Rain = 0
KCR2 170733Z 18007KT 16/04 A301 RMK A01 T01580035  RH  044%=      5-min Rain = 0
KCR2 170734Z 18007KT 16/04 A301 RMK A01 T01590035  RH  044%=      5-min Rain = 0
KCR2 170735Z 18006KT 16/04 A301 RMK A01 T01590035  RH  043%=      5-min Rain = 0
KCR2 170736Z 18007KT 16/04 A301 RMK A01 T01590035  RH  044%=      5-min Rain = 0
KCR2 170737Z 18007KT 16/04 A301 RMK A01 T01590036  RH  044%=      5-min Rain = 0
KCR2 170738Z 18007KT 16/04 A301 RMK A01 T01590036  RH  044%=      5-min Rain = 0
KCR2 170739Z 18006KT 16/04 A301 RMK A01 T01590036  RH  044%=      5-min Rain = 0
KCR2 170740Z 18007KT 16/04 A301 RMK A01 T01580036  RH  044%=      5-min Rain = 0
KCR2 170741Z 18007KT 16/04 A301 RMK A01 T01580037  RH  045%=      5-min Rain = 0
KCR2 170742Z 18007KT 16/04 A301 RMK A01 T01590038  RH  044%=      5-min Rain = 0
KCR2 170743Z 18007KT 16/04 A301 RMK A01 T01590039  RH  045%=      5-min Rain = 0
KCR2 170744Z 18009G14KT 16/04 A301 RMK A01 T01590039  RH  045%=      5-min Rain = 0
KCR2 170745Z 18009KT 16/04 A301 RMK A01 T01600043  RH  046%=      5-min Rain = 0
KCR2 170746Z 18008KT 16/04 A301 RMK A01 T01620043  RH  045%=      5-min Rain = 0
KCR2 170747Z 18009KT 16/04 A301 RMK A01 T01620043  RH  045%=      5-min Rain = 0
KCR2 170748Z 18008KT 16/04 A301 RMK A01 T01630043  RH  045%=      5-min Rain = 0
KCR2 170749Z 18009KT 16/04 A301 RMK A01 T01630044  RH  045%=      5-min Rain = 0
KCR2 170750Z 19010KT 16/05 A301 RMK A01 T01630045  RH  045%=      5-min Rain = 0
KCR2 170751Z 18011KT 16/05 A3009 RMK A01 T01640046  RH  046%=      5-min Rain = 0
KCR2 170752Z 18009KT 17/05 A3009 RMK A01 T01650047  RH  045%=      5-min Rain = 0
KCR2 170753Z 18009KT 17/05 A3009 RMK A01 T01650047  RH  045%=      5-min Rain = 0
KCR2 170754Z 18008KT 17/05 A3009 RMK A01 T01650047  RH  045%=      5-min Rain = 0
KCR2 170755Z 19009KT 17/05 A3009 RMK A01 T01650047  RH  046%=      5-min Rain = 0
KCR2 170756Z 18009KT 16/05 A3009 RMK A01 T01640047  RH  046%=      5-min Rain = 0
KCR2 170757Z 18010KT 17/05 A3009 RMK A01 T01650048  RH  046%=      5-min Rain = 0
KCR2 170758Z 18009KT 17/05 A301 RMK A01 T01650048  RH  046%=      5-min Rain = 0
KCR2 170759Z 19010KT 17/05 A3009 RMK A01 T01650048  RH  046%=      5-min Rain = 0
KCR2 170800Z 18008KT 17/05 A3009 RMK A01 T01650048  RH  046%=      5-min Rain = 0
KCR2 170801Z 18008KT 16/05 A3009 RMK A01 T01640048  RH  046%=      5-min Rain = 0
KCR2 170802Z 18011KT 16/05 A3009 RMK A01 T01630048  RH  046%=      5-min Rain = 0
KCR2 170803Z 19010KT 16/05 A3009 RMK A01 T01640050  RH  047%=      5-min Rain = 0
KCR2 170804Z 19010KT 17/05 A3009 RMK A01 T01650051  RH  047%=      5-min Rain = 0
KCR2 170805Z 18009KT 17/05 A3009 RMK A01 T01650050  RH  046%=      5-min Rain = 0
KCR2 170806Z 18010KT 17/05 A3009 RMK A01 T01650051  RH  047%=      5-min Rain = 0
KCR2 170807Z 18009KT 17/05 A3009 RMK A01 T01650051  RH  047%=      5-min Rain = 0
KCR2 170808Z 19010KT 17/05 A3009 RMK A01 T01650051  RH  047%=      5-min Rain = 0
KCR2 170809Z 19008KT 16/05 A3009 RMK A01 T01640051  RH  047%=      5-min Rain = 0
KCR2 170810Z 18008KT 16/05 A3009 RMK A01 T01640051  RH  047%=      5-min Rain = 0
KCR2 170811Z 18009KT 16/05 A3009 RMK A01 T01630051  RH  047%=      5-min Rain = 0
KCR2 170812Z 18010KT 16/05 A3009 RMK A01 T01630052  RH  048%=      5-min Rain = 0
KCR2 170813Z 18010KT 16/05 A3009 RMK A01 T01630052  RH  048%=      5-min Rain = 0
KCR2 170814Z 19009KT 16/05 A3009 RMK A01 T01640052  RH  048%=      5-min Rain = 0
KCR2 170815Z 18009KT 16/05 A3009 RMK A01 T01640052  RH  048%=      5-min Rain = 0
KCR2 170816Z 18008KT 16/05 A3009 RMK A01 T01640053  RH  048%=      5-min Rain = 0
KCR2 170817Z 19010KT 16/05 A3009 RMK A01 T01630053  RH  048%=      5-min Rain = 0
KCR2 170818Z 18009KT 16/05 A3009 RMK A01 T01630053  RH  048%=      5-min Rain = 0
KCR2 170819Z 18009KT 16/05 A3009 RMK A01 T01640053  RH  048%=      5-min Rain = 0
KCR2 170820Z 18008KT 16/05 A3009 RMK A01 T01640053  RH  048%=      5-min Rain = 0
KCR2 170821Z 19008KT 16/05 A3009 RMK A01 T01630053  RH  048%=      5-min Rain = 0
KCR2 170822Z 19008KT 16/05 A3009 RMK A01 T01620053  RH  048%=      5-min Rain = 0
KCR2 170823Z 18008KT 16/05 A3009 RMK A01 T01610053  RH  049%=      5-min Rain = 0
KCR2 170824Z 18009KT 16/05 A3009 RMK A01 T01610054  RH  049%=      5-min Rain = 0
KCR2 170825Z 18010KT 16/06 A3009 RMK A01 T01620055  RH  049%=      5-min Rain = 0
KCR2 170826Z 19010KT 16/06 A3009 RMK A01 T01630055  RH  049%=      5-min Rain = 0
KCR2 170827Z 18010KT 16/06 A3009 RMK A01 T01630055  RH  048%=      5-min Rain = 0
KCR2 170828Z 19008KT 16/06 A3009 RMK A01 T01640055  RH  048%=      5-min Rain = 0
KCR2 170829Z 19010KT 16/06 A3009 RMK A01 T01640055  RH  049%=      5-min Rain = 0
KCR2 170830Z 19009KT 16/06 A3009 RMK A01 T01630055  RH  049%=      5-min Rain = 0
KCR2 170831Z 19011KT 16/06 A3009 RMK A01 T01640055  RH  049%=      5-min Rain = 0
KCR2 170832Z 19012KT 16/06 A3009 RMK A01 T01640056  RH  049%=      5-min Rain = 0
KCR2 170833Z 19013KT 17/06 A3009 RMK A01 T01650056  RH  049%=      5-min Rain = 0
KCR2 170834Z 19013KT 17/06 A3009 RMK A01 T01660057  RH  048%=      5-min Rain = 0
KCR2 170835Z 19011KT 17/06 A3009 RMK A01 T01660057  RH  048%=      5-min Rain = 0
KCR2 170836Z 19010KT 17/06 A3009 RMK A01 T01660056  RH  048%=      5-min Rain = 0
KCR2 170837Z 19011KT 17/06 A3008 RMK A01 T01650057  RH  049%=      5-min Rain = 0
KCR2 170838Z 19012KT 17/06 A3008 RMK A01 T01650057  RH  049%=      5-min Rain = 0
KCR2 170839Z 20012KT 17/06 A3008 RMK A01 T01650057  RH  049%=      5-min Rain = 0
KCR2 170840Z 19010KT 17/06 A3008 RMK A01 T01660057  RH  049%=      5-min Rain = 0
KCR2 170841Z 19011KT 17/06 A3009 RMK A01 T01650057  RH  049%=      5-min Rain = 0
KCR2 170842Z 19009KT 17/06 A3009 RMK A01 T01650057  RH  049%=      5-min Rain = 0
KCR2 170843Z 19010KT 16/06 A3008 RMK A01 T01630056  RH  049%=      5-min Rain = 0
KCR2 170844Z 18010KT 16/06 A3008 RMK A01 T01630057  RH  049%=      5-min Rain = 0
KCR2 170845Z 19009KT 16/06 A3008 RMK A01 T01630057  RH  049%=      5-min Rain = 0
KCR2 170846Z 19007KT 16/06 A3008 RMK A01 T01630057  RH  049%=      5-min Rain = 0
KCR2 170847Z 19008KT 16/06 A3008 RMK A01 T01620056  RH  049%=      5-min Rain = 0
KCR2 170848Z 18007KT 16/06 A3008 RMK A01 T01610056  RH  050%=      5-min Rain = 0
KCR2 170849Z 19006KT 16/06 A3008 RMK A01 T01600056  RH  050%=      5-min Rain = 0
KCR2 170850Z 19006KT 16/06 A3008 RMK A01 T01590055  RH  050%=      5-min Rain = 0
KCR2 170851Z 19008KT 16/06 A3008 RMK A01 T01590056  RH  050%=      5-min Rain = 0
KCR2 170852Z 19007KT 16/06 A3008 RMK A01 T01590056  RH  050%=      5-min Rain = 0
KCR2 170853Z 19006KT 16/06 A3008 RMK A01 T01590056  RH  050%=      5-min Rain = 0
KCR2 170854Z 19008KT 16/06 A3008 RMK A01 T01580055  RH  050%=      5-min Rain = 0
KCR2 170855Z 19008KT 16/06 A3008 RMK A01 T01590056  RH  050%=      5-min Rain = 0
KCR2 170856Z 18009KT 16/06 A3008 RMK A01 T01600055  RH  050%=      5-min Rain = 0
KCR2 170857Z 19007KT 16/06 A3008 RMK A01 T01600055  RH  050%=      5-min Rain = 0
KCR2 170858Z 19006KT 16/06 A3008 RMK A01 T01600055  RH  050%=      5-min Rain = 0
KCR2 170859Z 19008KT 16/05 A3008 RMK A01 T01590054  RH  050%=      5-min Rain = 0
KCR2 170900Z 19008KT 16/06 A3008 RMK A01 T01590055  RH  050%=      5-min Rain = 0
KCR2 170901Z 19007KT 16/06 A3008 RMK A01 T01590055  RH  050%=      5-min Rain = 0
KCR2 170902Z 19006KT 16/05 A3008 RMK A01 T01580054  RH  050%=      5-min Rain = 0
KCR2 170903Z 19008KT 16/05 A3008 RMK A01 T01580054  RH  050%=      5-min Rain = 0
KCR2 170904Z 19007KT 16/05 A3008 RMK A01 T01570054  RH  050%=      5-min Rain = 0
KCR2 170905Z 19006KT 16/05 A3008 RMK A01 T01570054  RH  050%=      5-min Rain = 0
KCR2 170906Z 19008G13KT 16/05 A3008 RMK A01 T01560054  RH  051%=      5-min Rain = 0
KCR2 170907Z 19007KT 16/05 A3008 RMK A01 T01560054  RH  051%=      5-min Rain = 0
KCR2 170908Z 19008KT 16/05 A3008 RMK A01 T01550054  RH  051%=      5-min Rain = 0
KCR2 170909Z 19007KT 16/05 A3008 RMK A01 T01550054  RH  051%=      5-min Rain = 0
KCR2 170910Z 19009KT 16/05 A3008 RMK A01 T01550054  RH  051%=      5-min Rain = 0
KCR2 170911Z 19010KT 15/05 A3008 RMK A01 T01540054  RH  051%=      5-min Rain = 0
KCR2 170912Z 19009KT 16/05 A3008 RMK A01 T01550054  RH  051%=      5-min Rain = 0
KCR2 170913Z 19010KT 16/05 A3008 RMK A01 T01550054  RH  051%=      5-min Rain = 0
KCR2 170914Z 19011KT 16/06 A3007 RMK A01 T01550055  RH  051%=      5-min Rain = 0
KCR2 170915Z 20010KT 16/06 A3008 RMK A01 T01550055  RH  051%=      5-min Rain = 0
KCR2 170916Z 19011KT 16/06 A3007 RMK A01 T01550056  RH  051%=      5-min Rain = 0
KCR2 170917Z 19012KT 16/06 A3007 RMK A01 T01550056  RH  051%=      5-min Rain = 0
KCR2 170918Z 19011KT 16/06 A3007 RMK A01 T01550056  RH  052%=      5-min Rain = 0
KCR2 170919Z 20010KT 16/06 A3007 RMK A01 T01550056  RH  052%=      5-min Rain = 0
KCR2 170920Z 19011KT 15/06 A3007 RMK A01 T01540056  RH  052%=      5-min Rain = 0
KCR2 170921Z 19013KT 15/06 A3007 RMK A01 T01540057  RH  052%=      5-min Rain = 0
KCR2 170922Z 18013KT 15/06 A3007 RMK A01 T01540058  RH  052%=      5-min Rain = 0
KCR2 170923Z 19011KT 16/06 A3007 RMK A01 T01550058  RH  052%=      5-min Rain = 0
KCR2 170924Z 19012KT 16/06 A3007 RMK A01 T01550058  RH  053%=      5-min Rain = 0
KCR2 170925Z 19012KT 15/06 A3007 RMK A01 T01540059  RH  053%=      5-min Rain = 0
KCR2 170926Z 18013KT 15/06 A3007 RMK A01 T01540060  RH  053%=      5-min Rain = 0
KCR2 170927Z 19014KT 15/06 A3007 RMK A01 T01540060  RH  053%=      5-min Rain = 0
KCR2 170928Z 19014KT 16/06 A3007 RMK A01 T01550061  RH  053%=      5-min Rain = 0
KCR2 170929Z 19011KT 16/06 A3007 RMK A01 T01550061  RH  053%=      5-min Rain = 0
KCR2 170930Z 19012KT 16/06 A3007 RMK A01 T01550061  RH  053%=      5-min Rain = 0
KCR2 170931Z 18014KT 15/06 A3007 RMK A01 T01540061  RH  054%=      5-min Rain = 0
KCR2 170932Z 19013KT 15/06 A3007 RMK A01 T01540062  RH  054%=      5-min Rain = 0
KCR2 170933Z 19014KT 15/06 A3007 RMK A01 T01540062  RH  054%=      5-min Rain = 0
KCR2 170934Z 19014KT 16/06 A3007 RMK A01 T01550062  RH  054%=      5-min Rain = 0
KCR2 170935Z 19013KT 15/06 A3007 RMK A01 T01540062  RH  054%=      5-min Rain = 0
KCR2 170936Z 19017KT 15/06 A3007 RMK A01 T01540063  RH  054%=      5-min Rain = 0
KCR2 170937Z 19014KT 16/06 A3007 RMK A01 T01550063  RH  054%=      5-min Rain = 0
KCR2 170938Z 19013KT 16/06 A3007 RMK A01 T01550063  RH  054%=      5-min Rain = 0
KCR2 170939Z 19016G21KT 15/06 A3007 RMK A01 T01540063  RH  055%=      5-min Rain = 0
KCR2 170940Z 19015G20KT 15/07 A3007 RMK A01 T01540065  RH  055%=      5-min Rain = 0
KCR2 170941Z 19015G20KT 15/07 A3007 RMK A01 T01540065  RH  055%=      5-min Rain = 0
KCR2 170942Z 19017G22KT 15/07 A3007 RMK A01 T01540065  RH  055%=      5-min Rain = 0
KCR2 170943Z 19019KT 15/07 A3007 RMK A01 T01540066  RH  055%=      5-min Rain = 0
KCR2 170944Z 19018G23KT 15/07 A3007 RMK A01 T01540066  RH  055%=      5-min Rain = 0
KCR2 170945Z 19015KT 16/07 A3007 RMK A01 T01550066  RH  056%=      5-min Rain = 0
KCR2 170946Z 19016KT 16/07 A3007 RMK A01 T01550067  RH  056%=      5-min Rain = 0
KCR2 170947Z 19017KT 15/07 A3007 RMK A01 T01540067  RH  056%=      5-min Rain = 0
KCR2 170948Z 19015KT 16/07 A3007 RMK A01 T01550067  RH  056%=      5-min Rain = 0
KCR2 170949Z 19015KT 15/07 A3007 RMK A01 T01540068  RH  056%=      5-min Rain = 0
KCR2 170950Z 19015KT 15/07 A3007 RMK A01 T01540068  RH  057%=      5-min Rain = 0
KCR2 170951Z 19015KT 15/07 A3007 RMK A01 T01530068  RH  057%=      5-min Rain = 0
KCR2 170952Z 19017KT 15/07 A3007 RMK A01 T01540069  RH  057%=      5-min Rain = 0
KCR2 170953Z 19015KT 15/07 A3007 RMK A01 T01530069  RH  057%=      5-min Rain = 0
KCR2 170954Z 19016KT 15/07 A3006 RMK A01 T01540070  RH  057%=      5-min Rain = 0
KCR2 170955Z 19014KT 15/07 A3007 RMK A01 T01540070  RH  057%=      5-min Rain = 0
KCR2 170956Z 19017KT 15/07 A3007 RMK A01 T01530070  RH  058%=      5-min Rain = 0
KCR2 170957Z 19017G23KT 15/07 A3006 RMK A01 T01530071  RH  058%=      5-min Rain = 0
KCR2 170958Z 19017KT 15/07 A3006 RMK A01 T01530071  RH  058%=      5-min Rain = 0
KCR2 170959Z 18016KT 15/07 A3006 RMK A01 T01530071  RH  058%=      5-min Rain = 0
KCR2 171000Z 19015KT 15/07 A3006 RMK A01 T01520071  RH  058%=      5-min Rain = 0
KCR2 171001Z 19014G19KT 15/07 A3007 RMK A01 T01520071  RH  058%=      5-min Rain = 0
KCR2 171002Z 19016KT 15/07 A3006 RMK A01 T01520072  RH  059%=      5-min Rain = 0
KCR2 171003Z 19016G21KT 15/07 A3006 RMK A01 T01520072  RH  059%=      5-min Rain = 0
KCR2 171004Z 19014KT 15/07 A3006 RMK A01 T01520072  RH  059%=      5-min Rain = 0
KCR2 171005Z 19013KT 15/07 A3006 RMK A01 T01510072  RH  059%=      5-min Rain = 0
KCR2 171006Z 19014KT 15/07 A3006 RMK A01 T01500072  RH  059%=      5-min Rain = 0
KCR2 171007Z 19015KT 15/07 A3006 RMK A01 T01500073  RH  060%=      5-min Rain = 0
KCR2 171008Z 19015KT 15/07 A3006 RMK A01 T01500073  RH  060%=      5-min Rain = 0
KCR2 171009Z 18014KT 15/07 A3006 RMK A01 T01500073  RH  060%=      5-min Rain = 0
KCR2 171010Z 18015KT 15/07 A3006 RMK A01 T01500073  RH  060%=      5-min Rain = 0
KCR2 171011Z 19014KT 15/07 A3006 RMK A01 T01510074  RH  060%=      5-min Rain = 0
KCR2 171012Z 19017G23KT 15/07 A3006 RMK A01 T01500073  RH  060%=      5-min Rain = 0
KCR2 171013Z 18019KT 15/07 A3006 RMK A01 T01500074  RH  060%=      5-min Rain = 0
KCR2 171014Z 19017KT 15/07 A3006 RMK A01 T01500074  RH  060%=      5-min Rain = 0
KCR2 171015Z 18016G21KT 15/07 A3006 RMK A01 T01500074  RH  060%=      5-min Rain = 0
KCR2 171016Z 19013KT 15/07 A3006 RMK A01 T01500074  RH  061%=      5-min Rain = 0
KCR2 171017Z 18013KT 15/07 A3006 RMK A01 T01490074  RH  061%=      5-min Rain = 0
KCR2 171018Z 18014KT 15/07 A3006 RMK A01 T01480074  RH  061%=      5-min Rain = 0
KCR2 171019Z 19015KT 15/07 A3006 RMK A01 T01480074  RH  061%=      5-min Rain = 0
KCR2 171020Z 19013KT 15/08 A3006 RMK A01 T01480075  RH  061%=      5-min Rain = 0
KCR2 171021Z 19014KT 15/08 A3006 RMK A01 T01480075  RH  061%=      5-min Rain = 0
KCR2 171022Z 18015KT 15/08 A3006 RMK A01 T01480075  RH  062%=      5-min Rain = 0
KCR2 171023Z 19014KT 15/08 A3006 RMK A01 T01480075  RH  062%=      5-min Rain = 0
KCR2 171024Z 19015KT 15/08 A3006 RMK A01 T01480075  RH  061%=      5-min Rain = 0
KCR2 171025Z 18015KT 15/08 A3006 RMK A01 T01480075  RH  062%=      5-min Rain = 0
KCR2 171026Z 18013KT 15/08 A3006 RMK A01 T01480075  RH  062%=      5-min Rain = 0
KCR2 171027Z 18016KT 15/08 A3006 RMK A01 T01480075  RH  062%=      5-min Rain = 0
KCR2 171028Z 18013KT 15/08 A3006 RMK A01 T01480076  RH  062%=      5-min Rain = 0
KCR2 171029Z 18013KT 15/08 A3006 RMK A01 T01480076  RH  062%=      5-min Rain = 0
KCR2 171030Z 18014KT 15/08 A3006 RMK A01 T01480076  RH  062%=      5-min Rain = 0
KCR2 171031Z 19014KT 15/08 A3006 RMK A01 T01480076  RH  062%=      5-min Rain = 0
KCR2 171032Z 18011KT 15/08 A3006 RMK A01 T01480076  RH  062%=      5-min Rain = 0
KCR2 171033Z 18013KT 15/08 A3006 RMK A01 T01470075  RH  062%=      5-min Rain = 0
KCR2 171034Z 18014KT 15/08 A3006 RMK A01 T01470076  RH  063%=      5-min Rain = 0
KCR2 171035Z 19015KT 15/08 A3006 RMK A01 T01470076  RH  063%=      5-min Rain = 0
KCR2 171036Z 18014KT 15/08 A3006 RMK A01 T01470076  RH  063%=      5-min Rain = 0
KCR2 171037Z 18014KT 15/08 A3006 RMK A01 T01470076  RH  063%=      5-min Rain = 0
KCR2 171038Z 19014KT 15/08 A3006 RMK A01 T01470076  RH  063%=      5-min Rain = 0
KCR2 171039Z 18015KT 15/08 A3006 RMK A01 T01470077  RH  063%=      5-min Rain = 0
KCR2 171040Z 18013KT 15/08 A3006 RMK A01 T01470076  RH  063%=      5-min Rain = 0
KCR2 171041Z 19015KT 15/08 A3006 RMK A01 T01460076  RH  063%=      5-min Rain = 0
KCR2 171042Z 18015KT 15/08 A3006 RMK A01 T01460076  RH  063%=      5-min Rain = 0
KCR2 171043Z 18017KT 15/08 A3005 RMK A01 T01460076  RH  063%=      5-min Rain = 0
KCR2 171044Z 18015KT 15/08 A3006 RMK A01 T01460077  RH  063%=      5-min Rain = 0
KCR2 171045Z 18014KT 15/08 A3006 RMK A01 T01460076  RH  063%=      5-min Rain = 0
KCR2 171046Z 18015KT 15/08 A3006 RMK A01 T01460076  RH  063%=      5-min Rain = 0
KCR2 171047Z 18015G21KT 15/08 A3006 RMK A01 T01450077  RH  063%=      5-min Rain = 0
KCR2 171048Z 18016KT 15/08 A3006 RMK A01 T01450077  RH  063%=      5-min Rain = 0
KCR2 171049Z 18016KT 15/08 A3006 RMK A01 T01450077  RH  063%=      5-min Rain = 0
KCR2 171050Z 19015KT 15/08 A3005 RMK A01 T01450077  RH  063%=      5-min Rain = 0
KCR2 171051Z 18016KT 15/08 A3005 RMK A01 T01450077  RH  064%=      5-min Rain = 0
KCR2 171052Z 18015KT 15/08 A3006 RMK A01 T01460077  RH  064%=      5-min Rain = 0
KCR2 171053Z 18018KT 15/08 A3005 RMK A01 T01450077  RH  064%=      5-min Rain = 0
KCR2 171054Z 18014KT 15/08 A3006 RMK A01 T01460077  RH  064%=      5-min Rain = 0
KCR2 171055Z 18017KT 15/08 A3005 RMK A01 T01450077  RH  064%=      5-min Rain = 0
KCR2 171056Z 18019KT 15/08 A3005 RMK A01 T01460078  RH  064%=      5-min Rain = 0
KCR2 171057Z 18016KT 15/08 A3005 RMK A01 T01450077  RH  064%=      5-min Rain = 0
KCR2 171058Z 18014KT 15/08 A3006 RMK A01 T01450077  RH  064%=      5-min Rain = 0
KCR2 171059Z 18014KT 15/08 A3006 RMK A01 T01450077  RH  064%=      5-min Rain = 0
KCR2 171100Z 19016KT 14/08 A3005 RMK A01 T01440077  RH  064%=      5-min Rain = 0
KCR2 171101Z 18016KT 15/08 A3005 RMK A01 T01450077  RH  064%=      5-min Rain = 0
KCR2 171102Z 18019KT 15/08 A3005 RMK A01 T01450077  RH  064%=      5-min Rain = 0
KCR2 171103Z 18017KT 15/08 A3005 RMK A01 T01450078  RH  064%=      5-min Rain = 0
KCR2 171104Z 18016KT 15/08 A3005 RMK A01 T01450078  RH  064%=      5-min Rain = 0
KCR2 171105Z 18015KT 15/08 A3005 RMK A01 T01450077  RH  064%=      5-min Rain = 0
KCR2 171106Z 19014KT 15/08 A3005 RMK A01 T01450077  RH  064%=      5-min Rain = 0
KCR2 171107Z 18017KT 15/08 A3005 RMK A01 T01450078  RH  064%=      5-min Rain = 0
KCR2 171108Z 18016KT 14/08 A3005 RMK A01 T01440078  RH  064%=      5-min Rain = 0
KCR2 171109Z 18017G22KT 14/08 A3005 RMK A01 T01440077  RH  064%=      5-min Rain = 0
KCR2 171110Z 19018KT 15/08 A3005 RMK A01 T01450078  RH  064%=      5-min Rain = 0
KCR2 171111Z 19017KT 15/08 A3005 RMK A01 T01450078  RH  064%=      5-min Rain = 0
KCR2 171112Z 18016KT 15/08 A3005 RMK A01 T01450078  RH  064%=      5-min Rain = 0
KCR2 171113Z 18015KT 15/08 A3006 RMK A01 T01450077  RH  064%=      5-min Rain = 0
KCR2 171114Z 18016KT 15/08 A3006 RMK A01 T01450077  RH  064%=      5-min Rain = 0
KCR2 171115Z 18014KT 14/08 A3006 RMK A01 T01440077  RH  064%=      5-min Rain = 0
KCR2 171116Z 18018G24KT 14/08 A3005 RMK A01 T01440077  RH  064%=      5-min Rain = 0
KCR2 171117Z 18018KT 14/08 A3005 RMK A01 T01440077  RH  064%=      5-min Rain = 0
KCR2 171118Z 18016KT 15/08 A3006 RMK A01 T01450077  RH  064%=      5-min Rain = 0
KCR2 171119Z 18017G23KT 15/08 A3006 RMK A01 T01450077  RH  064%=      5-min Rain = 0
KCR2 171120Z 18019G24KT 15/08 A3006 RMK A01 T01450077  RH  064%=      5-min Rain = 0
KCR2 171121Z 18017KT 15/08 A3005 RMK A01 T01450077  RH  064%=      5-min Rain = 0
KCR2 171122Z 18018KT 15/08 A3006 RMK A01 T01450077  RH  064%=      5-min Rain = 0
KCR2 171123Z 18020KT 15/08 A3005 RMK A01 T01450077  RH  064%=      5-min Rain = 0
KCR2 171124Z 18019KT 15/08 A3005 RMK A01 T01450077  RH  064%=      5-min Rain = 0
KCR2 171125Z 18016KT 15/08 A3006 RMK A01 T01450077  RH  064%=      5-min Rain = 0
KCR2 171126Z 18020G25KT 15/08 A3005 RMK A01 T01450077  RH  064%=      5-min Rain = 0
KCR2 171127Z 18017KT 15/08 A3006 RMK A01 T01450077  RH  064%=      5-min Rain = 0
KCR2 171128Z 18018KT 15/08 A3006 RMK A01 T01450077  RH  064%=      5-min Rain = 0
KCR2 171129Z 18018KT 15/08 A3006 RMK A01 T01450077  RH  064%=      5-min Rain = 0
KCR2 171130Z 18017KT 15/08 A3006 RMK A01 T01450077  RH  064%=      5-min Rain = 0
KCR2 171131Z 18017KT 15/08 A3006 RMK A01 T01450077  RH  064%=      5-min Rain = 0
KCR2 171132Z 18018KT 15/08 A3006 RMK A01 T01450076  RH  064%=      5-min Rain = 0
KCR2 171133Z 18020KT 14/08 A3006 RMK A01 T01440076  RH  064%=      5-min Rain = 0
KCR2 171134Z 18018KT 15/08 A3006 RMK A01 T01450076  RH  063%=      5-min Rain = 0
KCR2 171135Z 19017KT 15/08 A3006 RMK A01 T01450076  RH  063%=      5-min Rain = 0
KCR2 171136Z 18016KT 15/08 A3006 RMK A01 T01450076  RH  063%=      5-min Rain = 0
KCR2 171137Z 18014KT 15/08 A3006 RMK A01 T01450076  RH  063%=      5-min Rain = 0
KCR2 171138Z 18018G25KT 14/08 A3006 RMK A01 T01440075  RH  063%=      5-min Rain = 0
KCR2 171139Z 18019G24KT 14/08 A3006 RMK A01 T01440076  RH  063%=      5-min Rain = 0
KCR2 171140Z 18020KT 15/08 A3006 RMK A01 T01450075  RH  063%=      5-min Rain = 0
KCR2 171141Z 18018KT 15/08 A3006 RMK A01 T01450075  RH  063%=      5-min Rain = 0
KCR2 171142Z 18018KT 15/08 A3006 RMK A01 T01450075  RH  063%=      5-min Rain = 0
KCR2 171143Z 18014KT 15/08 A3006 RMK A01 T01450075  RH  063%=      5-min Rain = 0
KCR2 171144Z 18014KT 15/08 A3006 RMK A01 T01450075  RH  063%=      5-min Rain = 0
KCR2 171145Z 18015G22KT 14/08 A3006 RMK A01 T01440075  RH  063%=      5-min Rain = 0
KCR2 171146Z 18018KT 14/08 A3006 RMK A01 T01440075  RH  063%=      5-min Rain = 0
KCR2 171147Z 18016KT 14/08 A3006 RMK A01 T01440075  RH  063%=      5-min Rain = 0
KCR2 171148Z 17015KT 14/08 A3006 RMK A01 T01440075  RH  063%=      5-min Rain = 0
KCR2 171149Z 18014KT 14/08 A3006 RMK A01 T01440075  RH  063%=      5-min Rain = 0
KCR2 171150Z 18014KT 14/07 A3006 RMK A01 T01440074  RH  063%=      5-min Rain = 0
KCR2 171151Z 18013KT 14/07 A3006 RMK A01 T01430074  RH  063%=      5-min Rain = 0
KCR2 171152Z 18015KT 14/08 A3006 RMK A01 T01430075  RH  063%=      5-min Rain = 0
KCR2 171153Z 18015KT 14/07 A3006 RMK A01 T01430074  RH  063%=      5-min Rain = 0
KCR2 171154Z 18014KT 14/07 A3006 RMK A01 T01430074  RH  063%=      5-min Rain = 0
KCR2 171155Z 18013KT 14/07 A3006 RMK A01 T01430074  RH  063%=      5-min Rain = 0
KCR2 171156Z 17015KT 14/07 A3006 RMK A01 T01430074  RH  063%=      5-min Rain = 0
KCR2 171157Z 18014KT 14/07 A3006 RMK A01 T01430074  RH  063%=      5-min Rain = 0
KCR2 171158Z 17013KT 14/07 A3006 RMK A01 T01430074  RH  063%=      5-min Rain = 0
KCR2 171159Z 18015G21KT 14/07 A3006 RMK A01 T01420074  RH  063%=      5-min Rain = 0
KCR2 171200Z 18015KT 14/07 A3006 RMK A01 T01420074  RH  064%=      5-min Rain = 0
KCR2 171201Z 17014KT 14/07 A3006 RMK A01 T01420074  RH  064%=      5-min Rain = 0
KCR2 171202Z 18016KT 14/07 A3006 RMK A01 T01420074  RH  064%=      5-min Rain = 0
KCR2 171203Z 18017KT 14/07 A3006 RMK A01 T01420074  RH  064%=      5-min Rain = 0
KCR2 171204Z 18016G21KT 14/07 A3006 RMK A01 T01420074  RH  064%=      5-min Rain = 0
KCR2 171205Z 18015KT 14/07 A3006 RMK A01 T01420074  RH  063%=      5-min Rain = 0
KCR2 171206Z 18015KT 14/07 A3006 RMK A01 T01420074  RH  064%=      5-min Rain = 0
KCR2 171207Z 18016KT 14/07 A3006 RMK A01 T01420074  RH  064%=      5-min Rain = 0
KCR2 171208Z 18016KT 14/07 A3006 RMK A01 T01420074  RH  064%=      5-min Rain = 0
KCR2 171209Z 18014KT 14/07 A3006 RMK A01 T01420074  RH  063%=      5-min Rain = 0
KCR2 171210Z 18016KT 14/07 A3006 RMK A01 T01420074  RH  063%=      5-min Rain = 0
KCR2 171211Z 18016G21KT 14/07 A3006 RMK A01 T01420074  RH  063%=      5-min Rain = 0
KCR2 171212Z 18017KT 14/07 A3006 RMK A01 T01420074  RH  063%=      5-min Rain = 0
KCR2 171213Z 18014KT 14/07 A3006 RMK A01 T01420074  RH  063%=      5-min Rain = 0
KCR2 171214Z 18012KT 14/07 A3006 RMK A01 T01420073  RH  063%=      5-min Rain = 0
KCR2 171215Z 18014KT 14/07 A3006 RMK A01 T01420074  RH  064%=      5-min Rain = 0
KCR2 171216Z 17013KT 14/07 A3006 RMK A01 T01420074  RH  064%=      5-min Rain = 0
KCR2 171217Z 18012KT 14/07 A3006 RMK A01 T01410074  RH  064%=      5-min Rain = 0
KCR2 171218Z 18015KT 14/07 A3006 RMK A01 T01410074  RH  064%=      5-min Rain = 0
KCR2 171219Z 18014KT 14/07 A3006 RMK A01 T01410074  RH  064%=      5-min Rain = 0
KCR2 171220Z 17013KT 14/07 A3006 RMK A01 T01410073  RH  064%=      5-min Rain = 0
KCR2 171221Z 17013KT 14/07 A3006 RMK A01 T01410073  RH  064%=      5-min Rain = 0
KCR2 171222Z 18015KT 14/07 A3006 RMK A01 T01410074  RH  064%=      5-min Rain = 0
KCR2 171223Z 17014KT 14/07 A3005 RMK A01 T01410073  RH  064%=      5-min Rain = 0
KCR2 171224Z 17015KT 14/07 A3005 RMK A01 T01410073  RH  064%=      5-min Rain = 0
KCR2 171225Z 18016KT 14/07 A3005 RMK A01 T01410073  RH  064%=      5-min Rain = 0
KCR2 171226Z 18013KT 14/07 A3005 RMK A01 T01410073  RH  064%=      5-min Rain = 0
KCR2 171227Z 17011KT 14/07 A3005 RMK A01 T01410073  RH  064%=      5-min Rain = 0
KCR2 171228Z 18013KT 14/07 A3005 RMK A01 T01390073  RH  064%=      5-min Rain = 0
KCR2 171229Z 18015G20KT 14/07 A3005 RMK A01 T01390074  RH  064%=      5-min Rain = 0
KCR2 171230Z 17013KT 14/07 A3005 RMK A01 T01390074  RH  064%=      5-min Rain = 0
KCR2 171231Z 18015KT 14/07 A3005 RMK A01 T01390074  RH  064%=      5-min Rain = 0
KCR2 171232Z 18015KT 14/07 A3005 RMK A01 T01390074  RH  064%=      5-min Rain = 0
KCR2 171233Z 17015KT 14/07 A3005 RMK A01 T01400073  RH  064%=      5-min Rain = 0
KCR2 171234Z 18012G17KT 14/07 A3005 RMK A01 T01390073  RH  064%=      5-min Rain = 0
KCR2 171235Z 18012KT 14/07 A3005 RMK A01 T01390073  RH  064%=      5-min Rain = 0
KCR2 171236Z 18014KT 14/07 A3005 RMK A01 T01390073  RH  065%=      5-min Rain = 0
KCR2 171237Z 18013KT 14/07 A3005 RMK A01 T01390073  RH  065%=      5-min Rain = 0
KCR2 171238Z 18014KT 14/07 A3005 RMK A01 T01390074  RH  065%=      5-min Rain = 0
KCR2 171239Z 18014KT 14/07 A3005 RMK A01 T01390073  RH  065%=      5-min Rain = 0
KCR2 171240Z 18014KT 14/07 A3005 RMK A01 T01390073  RH  065%=      5-min Rain = 0
KCR2 171241Z 18014KT 14/07 A3005 RMK A01 T01380073  RH  065%=      5-min Rain = 0
KCR2 171242Z 18016KT 14/07 A3005 RMK A01 T01380074  RH  065%=      5-min Rain = 0
KCR2 171243Z 18014KT 14/07 A3005 RMK A01 T01380074  RH  065%=      5-min Rain = 0
KCR2 171244Z 18013KT 14/07 A3005 RMK A01 T01380073  RH  065%=      5-min Rain = 0
KCR2 171245Z 17015KT 14/07 A3005 RMK A01 T01390074  RH  065%=      5-min Rain = 0
KCR2 171246Z 18017KT 14/07 A3005 RMK A01 T01390074  RH  065%=      5-min Rain = 0
KCR2 171247Z 18014KT 14/07 A3005 RMK A01 T01390074  RH  065%=      5-min Rain = 0
KCR2 171248Z 18014KT 14/07 A3005 RMK A01 T01390074  RH  065%=      5-min Rain = 0
KCR2 171249Z 18014KT 14/07 A3005 RMK A01 T01390073  RH  065%=      5-min Rain = 0
KCR2 171250Z 18015KT 14/07 A3005 RMK A01 T01390074  RH  065%=      5-min Rain = 0
KCR2 171251Z 18015KT 14/07 A3005 RMK A01 T01380074  RH  065%=      5-min Rain = 0
KCR2 171252Z 18014G19KT 14/07 A3005 RMK A01 T01380074  RH  065%=      5-min Rain = 0
KCR2 171253Z 17014KT 14/07 A3005 RMK A01 T01380073  RH  065%=      5-min Rain = 0
KCR2 171254Z 18015KT 14/07 A3005 RMK A01 T01390073  RH  065%=      5-min Rain = 0
KCR2 171255Z 18013KT 14/07 A3005 RMK A01 T01380073  RH  065%=      5-min Rain = 0
KCR2 171256Z 17012KT 14/07 A3005 RMK A01 T01390074  RH  065%=      5-min Rain = 0
KCR2 171257Z 18015KT 14/07 A3005 RMK A01 T01380074  RH  065%=      5-min Rain = 0
KCR2 171258Z 18016KT 14/07 A3005 RMK A01 T01390074  RH  065%=      5-min Rain = 0
KCR2 171259Z 18013KT 14/07 A3005 RMK A01 T01390073  RH  065%=      5-min Rain = 0
KCR2 171300Z 18016KT 14/07 A3004 RMK A01 T01390073  RH  065%=      5-min Rain = 0
KCR2 171301Z 18014G19KT 14/07 A3004 RMK A01 T01390073  RH  065%=      5-min Rain = 0
KCR2 171302Z 18013KT 14/07 A3004 RMK A01 T01390073  RH  065%=      5-min Rain = 0
KCR2 171303Z 17014KT 14/07 A3004 RMK A01 T01380073  RH  065%=      5-min Rain = 0
KCR2 171304Z 18015KT 14/07 A3004 RMK A01 T01380073  RH  065%=      5-min Rain = 0
KCR2 171305Z 18015KT 14/07 A3004 RMK A01 T01380073  RH  065%=      5-min Rain = 0
KCR2 171306Z 18013KT 14/07 A3004 RMK A01 T01380073  RH  065%=      5-min Rain = 0
KCR2 171307Z 18016KT 14/07 A3004 RMK A01 T01390073  RH  065%=      5-min Rain = 0
KCR2 171308Z 18016KT 14/07 A3004 RMK A01 T01380073  RH  065%=      5-min Rain = 0
KCR2 171309Z 18014KT 14/07 A3004 RMK A01 T01390073  RH  065%=      5-min Rain = 0
KCR2 171310Z 18015KT 14/07 A3004 RMK A01 T01390073  RH  065%=      5-min Rain = 0
KCR2 171311Z 18014KT 14/07 A3004 RMK A01 T01390073  RH  065%=      5-min Rain = 0
KCR2 171312Z 18015KT 14/07 A3004 RMK A01 T01390073  RH  065%=      5-min Rain = 0
KCR2 171313Z 18014KT 14/07 A3004 RMK A01 T01390073  RH  065%=      5-min Rain = 0
KCR2 171314Z 18014KT 14/07 A3004 RMK A01 T01390073  RH  065%=      5-min Rain = 0
KCR2 171315Z 18012KT 14/07 A3004 RMK A01 T01390073  RH  065%=      5-min Rain = 0
KCR2 171316Z 18015KT 14/07 A3004 RMK A01 T01390074  RH  065%=      5-min Rain = 0
KCR2 171317Z 18014KT 14/07 A3004 RMK A01 T01390074  RH  065%=      5-min Rain = 0
KCR2 171318Z 18013KT 14/07 A3004 RMK A01 T01400074  RH  065%=      5-min Rain = 0
KCR2 171319Z 18013KT 14/07 A3004 RMK A01 T01390074  RH  065%=      5-min Rain = 0
KCR2 171320Z 18011KT 14/07 A3005 RMK A01 T01390073  RH  064%=      5-min Rain = 0
KCR2 171321Z 18015KT 14/07 A3005 RMK A01 T01400074  RH  065%=      5-min Rain = 0
KCR2 171322Z 18014KT 14/07 A3005 RMK A01 T01400074  RH  065%=      5-min Rain = 0
KCR2 171323Z 18014KT 14/07 A3005 RMK A01 T01400074  RH  064%=      5-min Rain = 0
KCR2 171324Z 18016KT 14/07 A3005 RMK A01 T01410074  RH  064%=      5-min Rain = 0
KCR2 171325Z 17016KT 14/08 A3005 RMK A01 T01410075  RH  064%=      5-min Rain = 0
KCR2 171326Z 18015KT 14/07 A3005 RMK A01 T01410074  RH  064%=      5-min Rain = 0
KCR2 171327Z 17014KT 14/07 A3005 RMK A01 T01410074  RH  064%=      5-min Rain = 0
KCR2 171328Z 18013KT 14/08 A3005 RMK A01 T01420075  RH  064%=      5-min Rain = 0
KCR2 171329Z 18014KT 14/07 A3005 RMK A01 T01410074  RH  064%=      5-min Rain = 0
KCR2 171330Z 17013KT 14/08 A3005 RMK A01 T01420075  RH  064%=      5-min Rain = 0
KCR2 171331Z 18010KT 14/08 A3005 RMK A01 T01420075  RH  064%=      5-min Rain = 0
KCR2 171332Z 18011KT 14/08 A3005 RMK A01 T01420075  RH  064%=      5-min Rain = 0
KCR2 171333Z 18015KT 14/08 A3005 RMK A01 T01420075  RH  064%=      5-min Rain = 0
KCR2 171334Z 18013KT 14/08 A3005 RMK A01 T01430075  RH  064%=      5-min Rain = 0
KCR2 171335Z 17014KT 14/08 A3005 RMK A01 T01430075  RH  063%=      5-min Rain = 0
KCR2 171336Z 17014KT 14/08 A3005 RMK A01 T01440075  RH  063%=      5-min Rain = 0
KCR2 171337Z 18014KT 14/08 A3005 RMK A01 T01440075  RH  063%=      5-min Rain = 0
KCR2 171338Z 18012KT 14/08 A3005 RMK A01 T01440075  RH  063%=      5-min Rain = 0
KCR2 171339Z 18013KT 15/08 A3005 RMK A01 T01450075  RH  063%=      5-min Rain = 0
KCR2 171340Z 18011KT 15/08 A3005 RMK A01 T01450075  RH  063%=      5-min Rain = 0
KCR2 171341Z 17011KT 15/08 A3005 RMK A01 T01450076  RH  063%=      5-min Rain = 0
KCR2 171342Z 17012KT 15/08 A3005 RMK A01 T01460076  RH  063%=      5-min Rain = 0
KCR2 171343Z 17011KT 15/08 A3005 RMK A01 T01460076  RH  063%=      5-min Rain = 0
KCR2 171344Z 18011KT 15/08 A3005 RMK A01 T01460076  RH  063%=      5-min Rain = 0
KCR2 171345Z 17011KT 15/08 A3005 RMK A01 T01470077  RH  063%=      5-min Rain = 0
KCR2 171346Z 17011KT 15/08 A3005 RMK A01 T01470076  RH  062%=      5-min Rain = 0
KCR2 171347Z 17013KT 15/08 A3005 RMK A01 T01480077  RH  062%=      5-min Rain = 0
KCR2 171348Z 18013KT 15/08 A3005 RMK A01 T01480077  RH  062%=      5-min Rain = 0
KCR2 171349Z 18012KT 15/08 A3005 RMK A01 T01490077  RH  062%=      5-min Rain = 0
KCR2 171350Z 18015KT 15/08 A3005 RMK A01 T01500077  RH  062%=      5-min Rain = 0
KCR2 171351Z 18016KT 15/08 A3005 RMK A01 T01500077  RH  062%=      5-min Rain = 0
KCR2 171352Z 18011KT 15/08 A3005 RMK A01 T01500077  RH  062%=      5-min Rain = 0
KCR2 171353Z 17013KT 15/08 A3005 RMK A01 T01500077  RH  062%=      5-min Rain = 0
KCR2 171354Z 18015KT 15/08 A3005 RMK A01 T01510077  RH  061%=      5-min Rain = 0
KCR2 171355Z 17014KT 15/08 A3005 RMK A01 T01520078  RH  061%=      5-min Rain = 0
KCR2 171356Z 18013KT 15/08 A3005 RMK A01 T01520078  RH  061%=      5-min Rain = 0
KCR2 171357Z 18014KT 15/08 A3005 RMK A01 T01520078  RH  061%=      5-min Rain = 0
KCR2 171358Z 17012KT 15/08 A3005 RMK A01 T01530078  RH  061%=      5-min Rain = 0
KCR2 171359Z 18014KT 15/08 A3005 RMK A01 T01540078  RH  060%=      5-min Rain = 0
KCR2 171400Z 18013KT 15/08 A3005 RMK A01 T01540078  RH  060%=      5-min Rain = 0
KCR2 171401Z 18014KT 16/08 A3005 RMK A01 T01550078  RH  060%=      5-min Rain = 0
KCR2 171402Z 18013KT 16/08 A3005 RMK A01 T01550078  RH  060%=      5-min Rain = 0
KCR2 171403Z 18013KT 16/08 A3005 RMK A01 T01560078  RH  060%=      5-min Rain = 0
KCR2 171404Z 18014KT 16/08 A3005 RMK A01 T01560078  RH  060%=      5-min Rain = 0
KCR2 171405Z 18015KT 16/08 A3005 RMK A01 T01560078  RH  060%=      5-min Rain = 0
KCR2 171406Z 17014KT 16/08 A3005 RMK A01 T01560078  RH  060%=      5-min Rain = 0
KCR2 171407Z 18013G19KT 16/08 A3006 RMK A01 T01570078  RH  060%=      5-min Rain = 0
KCR2 171408Z 18014G19KT 16/08 A3005 RMK A01 T01580079  RH  059%=      5-min Rain = 0
KCR2 171409Z 18013KT 16/08 A3006 RMK A01 T01570078  RH  059%=      5-min Rain = 0
KCR2 171410Z 18015KT 16/08 A3006 RMK A01 T01580079  RH  059%=      5-min Rain = 0
KCR2 171411Z 18015KT 16/08 A3006 RMK A01 T01580079  RH  059%=      5-min Rain = 0
KCR2 171412Z 18013KT 16/08 A3006 RMK A01 T01580078  RH  059%=      5-min Rain = 0
KCR2 171413Z 18014KT 16/08 A3006 RMK A01 T01590079  RH  059%=      5-min Rain = 0
KCR2 171414Z 18012KT 16/08 A3006 RMK A01 T01590079  RH  059%=      5-min Rain = 0
KCR2 171415Z 18011KT 16/08 A3006 RMK A01 T01600079  RH  059%=      5-min Rain = 0
KCR2 171416Z 18013KT 16/08 A3006 RMK A01 T01610079  RH  058%=      5-min Rain = 0
KCR2 171417Z 18011KT 16/08 A3006 RMK A01 T01610079  RH  058%=      5-min Rain = 0
KCR2 171418Z 18015KT 16/08 A3006 RMK A01 T01620080  RH  058%=      5-min Rain = 0
KCR2 171419Z 18013KT 16/08 A3006 RMK A01 T01620080  RH  058%=      5-min Rain = 0
KCR2 171420Z 18012KT 16/08 A3006 RMK A01 T01620080  RH  058%=      5-min Rain = 0
KCR2 171421Z 18013KT 16/08 A3006 RMK A01 T01630080  RH  058%=      5-min Rain = 0
KCR2 171422Z 18015KT 16/08 A3006 RMK A01 T01630080  RH  058%=      5-min Rain = 0
KCR2 171423Z 18015KT 16/08 A3006 RMK A01 T01630080  RH  058%=      5-min Rain = 0
KCR2 171424Z 18017KT 16/08 A3006 RMK A01 T01630080  RH  058%=      5-min Rain = 0
KCR2 171425Z 18015KT 16/08 A3006 RMK A01 T01630080  RH  058%=      5-min Rain = 0
KCR2 171426Z 18015KT 16/08 A3006 RMK A01 T01630079  RH  058%=      5-min Rain = 0
KCR2 171427Z 18016KT 16/08 A3006 RMK A01 T01630080  RH  058%=      5-min Rain = 0
KCR2 171428Z 18015G20KT 16/08 A3006 RMK A01 T01640080  RH  057%=      5-min Rain = 0
KCR2 171429Z 18014KT 16/08 A3006 RMK A01 T01640080  RH  057%=      5-min Rain = 0
KCR2 171430Z 19015KT 16/08 A3006 RMK A01 T01640080  RH  058%=      5-min Rain = 0
KCR2 171431Z 18016KT 16/08 A3006 RMK A01 T01640081  RH  058%=      5-min Rain = 0
KCR2 171432Z 18016KT 17/08 A3006 RMK A01 T01650081  RH  057%=      5-min Rain = 0
KCR2 171433Z 18015KT 16/08 A3006 RMK A01 T01640080  RH  057%=      5-min Rain = 0
KCR2 171434Z 18016KT 16/08 A3006 RMK A01 T01640080  RH  058%=      5-min Rain = 0
KCR2 171435Z 18015KT 16/08 A3006 RMK A01 T01640080  RH  057%=      5-min Rain = 0
KCR2 171436Z 17015KT 16/08 A3006 RMK A01 T01640080  RH  057%=      5-min Rain = 0
KCR2 171437Z 18016KT 16/08 A3006 RMK A01 T01640080  RH  057%=      5-min Rain = 0
KCR2 171438Z 18015KT 17/08 A3006 RMK A01 T01650080  RH  057%=      5-min Rain = 0
KCR2 171439Z 18016KT 17/08 A3006 RMK A01 T01650080  RH  057%=      5-min Rain = 0
KCR2 171440Z 18015KT 17/08 A3006 RMK A01 T01660081  RH  057%=      5-min Rain = 0
KCR2 171441Z 17014KT 17/08 A3006 RMK A01 T01660081  RH  057%=      5-min Rain = 0
KCR2 171442Z 18014KT 17/08 A3006 RMK A01 T01670081  RH  057%=      5-min Rain = 0
KCR2 171443Z 18012G17KT 17/08 A3006 RMK A01 T01670081  RH  057%=      5-min Rain = 0
KCR2 171444Z 19013KT 17/08 A3006 RMK A01 T01680081  RH  057%=      5-min Rain = 0
KCR2 171445Z 18015KT 17/08 A3007 RMK A01 T01680082  RH  057%=      5-min Rain = 0
KCR2 171446Z 18016KT 17/08 A3006 RMK A01 T01690082  RH  056%=      5-min Rain = 0
KCR2 171447Z 18015KT 17/08 A3006 RMK A01 T01680081  RH  057%=      5-min Rain = 0
KCR2 171448Z 18014KT 17/08 A3007 RMK A01 T01680081  RH  056%=      5-min Rain = 0
KCR2 171449Z 17015KT 17/08 A3007 RMK A01 T01690081  RH  056%=      5-min Rain = 0
KCR2 171450Z 17014KT 17/08 A3007 RMK A01 T01700081  RH  056%=      5-min Rain = 0
KCR2 171451Z 18013KT 17/08 A3007 RMK A01 T01700081  RH  056%=      5-min Rain = 0
KCR2 171452Z 18013KT 17/08 A3007 RMK A01 T01700082  RH  056%=      5-min Rain = 0
KCR2 171453Z 18012KT 17/08 A3007 RMK A01 T01700082  RH  056%=      5-min Rain = 0
KCR2 171454Z 18015KT 17/08 A3007 RMK A01 T01720082  RH  055%=      5-min Rain = 0
KCR2 171455Z 18013KT 17/08 A3007 RMK A01 T01720082  RH  055%=      5-min Rain = 0
KCR2 171456Z 18016KT 17/08 A3006 RMK A01 T01740082  RH  055%=      5-min Rain = 0
KCR2 171457Z 18013KT 17/08 A3006 RMK A01 T01730082  RH  055%=      5-min Rain = 0
KCR2 171458Z 18014KT 17/08 A3006 RMK A01 T01730082  RH  055%=      5-min Rain = 0
KCR2 171459Z 18014KT 17/08 A3006 RMK A01 T01740082  RH  055%=      5-min Rain = 0
KCR2 171500Z 19014KT 17/08 A3006 RMK A01 T01740082  RH  054%=      5-min Rain = 0
KCR2 171501Z 18016KT 18/08 A3006 RMK A01 T01750082  RH  054%=      5-min Rain = 0
KCR2 171502Z 18014KT 18/08 A3006 RMK A01 T01750082  RH  054%=      5-min Rain = 0
KCR2 171503Z 18014KT 18/08 A3006 RMK A01 T01750082  RH  055%=      5-min Rain = 0
KCR2 171504Z 18012KT 18/08 A3006 RMK A01 T01760083  RH  054%=      5-min Rain = 0
KCR2 171505Z 18014KT 18/08 A3006 RMK A01 T01780083  RH  054%=      5-min Rain = 0
KCR2 171506Z 19014KT 18/08 A3006 RMK A01 T01790083  RH  053%=      5-min Rain = 0
KCR2 171507Z 19014KT 18/08 A3006 RMK A01 T01790082  RH  053%=      5-min Rain = 0
KCR2 171508Z 19015KT 18/08 A3006 RMK A01 T01800083  RH  053%=      5-min Rain = 0
KCR2 171509Z 19013KT 18/08 A3006 RMK A01 T01790082  RH  053%=      5-min Rain = 0
KCR2 171510Z 20016KT 18/08 A3006 RMK A01 T01800083  RH  053%=      5-min Rain = 0
KCR2 171511Z 18013KT 18/08 A3006 RMK A01 T01800083  RH  053%=      5-min Rain = 0
KCR2 171512Z 18014KT 18/08 A3006 RMK A01 T01810083  RH  053%=      5-min Rain = 0
KCR2 171513Z 18014KT 18/08 A3006 RMK A01 T01820084  RH  053%=      5-min Rain = 0
KCR2 171514Z 18015KT 18/08 A3006 RMK A01 T01820083  RH  052%=      5-min Rain = 0
KCR2 171515Z 18015KT 18/08 A3006 RMK A01 T01830083  RH  052%=      5-min Rain = 0
KCR2 171516Z 19015KT 18/08 A3006 RMK A01 T01830083  RH  052%=      5-min Rain = 0
KCR2 171517Z 19014KT 18/08 A3006 RMK A01 T01830083  RH  052%=      5-min Rain = 0
KCR2 171518Z 19015KT 19/08 A3006 RMK A01 T01850083  RH  052%=      5-min Rain = 0
KCR2 171519Z 19014KT 18/08 A3007 RMK A01 T01840083  RH  052%=      5-min Rain = 0
KCR2 171520Z 18017KT 19/08 A3007 RMK A01 T01850083  RH  052%=      5-min Rain = 0
KCR2 171521Z 19015KT 19/08 A3007 RMK A01 T01860083  RH  051%=      5-min Rain = 0
KCR2 171522Z 19014KT 19/08 A3007 RMK A01 T01850083  RH  051%=      5-min Rain = 0
KCR2 171523Z 19013KT 19/08 A3007 RMK A01 T01860083  RH  051%=      5-min Rain = 0
KCR2 171524Z 19014KT 19/08 A3007 RMK A01 T01880084  RH  051%=      5-min Rain = 0
KCR2 171525Z 19014KT 19/08 A3007 RMK A01 T01880084  RH  051%=      5-min Rain = 0
KCR2 171526Z 19015KT 19/08 A3007 RMK A01 T01880083  RH  051%=      5-min Rain = 0
KCR2 171527Z 19015KT 19/08 A3007 RMK A01 T01870084  RH  051%=      5-min Rain = 0
KCR2 171528Z 19013KT 19/08 A3007 RMK A01 T01870084  RH  051%=      5-min Rain = 0
KCR2 171529Z 18014KT 19/08 A3007 RMK A01 T01880084  RH  051%=      5-min Rain = 0
KCR2 171530Z 18013KT 19/09 A3007 RMK A01 T01890085  RH  051%=      5-min Rain = 0
KCR2 171531Z 18014KT 19/09 A3007 RMK A01 T01910085  RH  050%=      5-min Rain = 0
KCR2 171532Z 18014KT 19/08 A3007 RMK A01 T01910084  RH  050%=      5-min Rain = 0
KCR2 171533Z 18013KT 19/09 A3007 RMK A01 T01920085  RH  050%=      5-min Rain = 0
KCR2 171534Z 18015KT 19/09 A3007 RMK A01 T01940085  RH  049%=      5-min Rain = 0
KCR2 171535Z 18015KT 19/08 A3007 RMK A01 T01940084  RH  049%=      5-min Rain = 0
KCR2 171536Z 19016KT 19/08 A3007 RMK A01 T01930084  RH  049%=      5-min Rain = 0
KCR2 171537Z 19014KT 19/08 A3007 RMK A01 T01940084  RH  049%=      5-min Rain = 0
KCR2 171538Z 19015KT 20/08 A3007 RMK A01 T01950084  RH  049%=      5-min Rain = 0
KCR2 171539Z 18013KT 19/08 A3007 RMK A01 T01940084  RH  049%=      5-min Rain = 0
KCR2 171540Z 19014KT 19/09 A3007 RMK A01 T01930085  RH  049%=      5-min Rain = 0
KCR2 171541Z 19011KT 19/09 A3007 RMK A01 T01930085  RH  049%=      5-min Rain = 0
KCR2 171542Z 19012G17KT 19/09 A3007 RMK A01 T01930085  RH  049%=      5-min Rain = 0
KCR2 171543Z 19014KT 20/09 A3007 RMK A01 T01950085  RH  049%=      5-min Rain = 0
KCR2 171544Z 19013KT 20/09 A3007 RMK A01 T01960085  RH  048%=      5-min Rain = 0
KCR2 171545Z 19012KT 20/09 A3007 RMK A01 T01970085  RH  048%=      5-min Rain = 0
KCR2 171546Z 18012KT 20/09 A3007 RMK A01 T01990086  RH  048%=      5-min Rain = 0
KCR2 171547Z 19013KT 20/09 A3007 RMK A01 T02010085  RH  047%=      5-min Rain = 0
KCR2 171548Z 19013KT 20/08 A3007 RMK A01 T02020084  RH  047%=      5-min Rain = 0
KCR2 171549Z 19016KT 20/08 A3007 RMK A01 T02010084  RH  047%=      5-min Rain = 0
KCR2 171550Z 19015KT 20/08 A3007 RMK A01 T02010084  RH  047%=      5-min Rain = 0
KCR2 171551Z 19013KT 20/08 A3007 RMK A01 T02010084  RH  047%=      5-min Rain = 0
KCR2 171552Z 19013KT 20/08 A3007 RMK A01 T02010084  RH  047%=      5-min Rain = 0
KCR2 171553Z 19013KT 20/08 A3007 RMK A01 T02010084  RH  047%=      5-min Rain = 0
KCR2 171554Z 19013KT 20/08 A3007 RMK A01 T02020084  RH  047%=      5-min Rain = 0
KCR2 171555Z 19012KT 20/08 A3007 RMK A01 T02020084  RH  047%=      5-min Rain = 0
KCR2 171556Z 18015KT 20/09 A3007 RMK A01 T02040086  RH  047%=      5-min Rain = 0
KCR2 171557Z 18015KT 21/09 A3007 RMK A01 T02050086  RH  046%=      5-min Rain = 0
KCR2 171558Z 20014KT 20/09 A3007 RMK A01 T02040085  RH  046%=      5-min Rain = 0
KCR2 171559Z 20014KT 20/09 A3007 RMK A01 T02040085  RH  046%=      5-min Rain = 0
KCR2 171600Z 19014KT 20/09 A3007 RMK A01 T02040085  RH  046%=      5-min Rain = 0
KCR2 171601Z 19013KT 20/09 A3007 RMK A01 T02040085  RH  046%=      5-min Rain = 0
KCR2 171602Z 19012KT 21/09 A3007 RMK A01 T02050085  RH  046%=      5-min Rain = 0
KCR2 171603Z 19014KT 21/09 A3007 RMK A01 T02050086  RH  046%=      5-min Rain = 0
KCR2 171604Z 18011KT 21/09 A3007 RMK A01 T02060085  RH  046%=      5-min Rain = 0
KCR2 171605Z 18012KT 21/09 A3007 RMK A01 T02060086  RH  046%=      5-min Rain = 0
KCR2 171606Z 18013KT 21/09 A3007 RMK A01 T02070086  RH  046%=      5-min Rain = 0
KCR2 171607Z 18015KT 21/09 A3007 RMK A01 T02080086  RH  046%=      5-min Rain = 0
KCR2 171608Z 17014KT 21/09 A3007 RMK A01 T02080086  RH  046%=      5-min Rain = 0
KCR2 171609Z 17013KT 21/09 A3007 RMK A01 T02080086  RH  046%=      5-min Rain = 0
KCR2 171610Z 18013KT 21/09 A3007 RMK A01 T02090088  RH  046%=      5-min Rain = 0
KCR2 171611Z 19015KT 21/09 A3007 RMK A01 T02110087  RH  045%=      5-min Rain = 0
KCR2 171612Z 18014KT 21/09 A3007 RMK A01 T02110086  RH  045%=      5-min Rain = 0
KCR2 171613Z 19014KT 21/09 A3007 RMK A01 T02120086  RH  044%=      5-min Rain = 0
KCR2 171614Z 20012KT 21/09 A3007 RMK A01 T02120086  RH  044%=      5-min Rain = 0
KCR2 171615Z 20014KT 21/09 A3007 RMK A01 T02120086  RH  045%=      5-min Rain = 0
KCR2 171616Z 19014KT 21/09 A3007 RMK A01 T02120086  RH  044%=      5-min Rain = 0
KCR2 171617Z 19012KT 21/09 A3007 RMK A01 T02120085  RH  044%=      5-min Rain = 0
KCR2 171618Z 19011KT 21/09 A3007 RMK A01 T02120085  RH  044%=      5-min Rain = 0
KCR2 171619Z 19010KT 21/09 A3007 RMK A01 T02130087  RH  044%=      5-min Rain = 0
KCR2 171620Z 18011KT 22/09 A3007 RMK A01 T02150087  RH  044%=      5-min Rain = 0
KCR2 171621Z 18013KT 22/09 A3007 RMK A01 T02170087  RH  043%=      5-min Rain = 0
KCR2 171622Z 19013KT 22/09 A3006 RMK A01 T02170087  RH  043%=      5-min Rain = 0
KCR2 171623Z 19012KT 22/09 A3006 RMK A01 T02170087  RH  043%=      5-min Rain = 0
KCR2 171624Z 20012KT 22/09 A3006 RMK A01 T02170087  RH  043%=      5-min Rain = 0
KCR2 171625Z 20011KT 22/09 A3006 RMK A01 T02180087  RH  043%=      5-min Rain = 0
KCR2 171626Z 19010KT 22/09 A3006 RMK A01 T02180087  RH  043%=      5-min Rain = 0
KCR2 171627Z 18010KT 22/09 A3006 RMK A01 T02190088  RH  043%=      5-min Rain = 0
KCR2 171628Z 18011KT 22/09 A3006 RMK A01 T02190089  RH  043%=      5-min Rain = 0
KCR2 171629Z 18012KT 22/09 A3006 RMK A01 T02200088  RH  043%=      5-min Rain = 0
KCR2 171630Z 19012KT 22/09 A3006 RMK A01 T02190087  RH  043%=      5-min Rain = 0
KCR2 171631Z 18010KT 22/09 A3006 RMK A01 T02180087  RH  043%=      5-min Rain = 0
KCR2 171632Z 18013KT 22/09 A3006 RMK A01 T02180086  RH  043%=      5-min Rain = 0
KCR2 171633Z 19011KT 22/09 A3006 RMK A01 T02190085  RH  042%=      5-min Rain = 0
KCR2 171634Z 20010KT 22/09 A3006 RMK A01 T02200086  RH  042%=      5-min Rain = 0
KCR2 171635Z 17011KT 22/09 A3006 RMK A01 T02220088  RH  042%=      5-min Rain = 0
KCR2 171636Z 17011KT 22/09 A3006 RMK A01 T02230089  RH  042%=      5-min Rain = 0
KCR2 171637Z 17011KT 22/09 A3006 RMK A01 T02240089  RH  042%=      5-min Rain = 0
KCR2 171638Z 18012KT 23/09 A3006 RMK A01 T02270089  RH  041%=      5-min Rain = 0
KCR2 171639Z 19012KT 23/09 A3006 RMK A01 T02280088  RH  041%=      5-min Rain = 0
KCR2 171640Z 19010KT 23/09 A3006 RMK A01 T02280087  RH  040%=      5-min Rain = 0
KCR2 171641Z 19009KT 23/09 A3006 RMK A01 T02280087  RH  041%=      5-min Rain = 0
KCR2 171642Z 19014KT 23/09 A3006 RMK A01 T02290086  RH  040%=      5-min Rain = 0
KCR2 171643Z 20012KT 23/09 A3006 RMK A01 T02290085  RH  040%=      5-min Rain = 0
KCR2 171644Z 20012KT 23/09 A3006 RMK A01 T02290086  RH  040%=      5-min Rain = 0
KCR2 171645Z 19012KT 23/09 A3006 RMK A01 T02310085  RH  039%=      5-min Rain = 0
KCR2 171646Z 19012KT 23/09 A3006 RMK A01 T02290085  RH  040%=      5-min Rain = 0
KCR2 171647Z 19012KT 23/09 A3006 RMK A01 T02290085  RH  040%=      5-min Rain = 0
KCR2 171648Z 18013KT 23/09 A3006 RMK A01 T02320087  RH  040%=      5-min Rain = 0
KCR2 171649Z 18012KT 23/09 A3006 RMK A01 T02320086  RH  039%=      5-min Rain = 0
KCR2 171650Z 20012KT 24/09 A3006 RMK A01 T02350088  RH  039%=      5-min Rain = 0
KCR2 171651Z 19013KT 24/09 A3006 RMK A01 T02370086  RH  038%=      5-min Rain = 0
KCR2 171652Z 19011KT 24/08 A3006 RMK A01 T02350084  RH  038%=      5-min Rain = 0
KCR2 171653Z 19010KT 23/09 A3006 RMK A01 T02320085  RH  039%=      5-min Rain = 0
KCR2 171654Z 20012KT 24/09 A3006 RMK A01 T02350087  RH  039%=      5-min Rain = 0
KCR2 171655Z 20012KT 24/08 A3005 RMK A01 T02370084  RH  038%=      5-min Rain = 0
KCR2 171656Z 19010KT 24/08 A3006 RMK A01 T02360084  RH  038%=      5-min Rain = 0
KCR2 171657Z 19013KT 24/09 A3005 RMK A01 T02380085  RH  038%=      5-min Rain = 0
KCR2 171658Z 19011KT 24/08 A3005 RMK A01 T02380083  RH  037%=      5-min Rain = 0
KCR2 171659Z 19011KT 24/08 A3005 RMK A01 T02370084  RH  038%=      5-min Rain = 0
KCR2 171700Z 20015KT 24/08 A3005 RMK A01 T02380082  RH  037%=      5-min Rain = 0
KCR2 171701Z 21013KT 24/08 A3005 RMK A01 T02380081  RH  036%=      5-min Rain = 0
KCR2 171702Z 23013G18KT 24/08 A3006 RMK A01 T02380082  RH  037%=      5-min Rain = 0
KCR2 171703Z 20011KT 24/08 A3005 RMK A01 T02370081  RH  037%=      5-min Rain = 0
KCR2 171704Z 21010KT 24/08 A3005 RMK A01 T02370082  RH  037%=      5-min Rain = 0
KCR2 171705Z 21011G17KT 24/09 A3005 RMK A01 T02380085  RH  038%=      5-min Rain = 0
KCR2 171706Z 21014KT 24/09 A3005 RMK A01 T02430085  RH  036%=      5-min Rain = 0
KCR2 171707Z 20012KT 25/08 A3005 RMK A01 T02450082  RH  035%=      5-min Rain = 0
KCR2 171708Z 20009KT 24/08 A3006 RMK A01 T02420081  RH  036%=      5-min Rain = 0
KCR2 171709Z 20010G15KT 24/08 A3005 RMK A01 T02400084  RH  037%=      5-min Rain = 0
KCR2 171710Z 19013KT 24/08 A3005 RMK A01 T02410084  RH  037%=      5-min Rain = 0
KCR2 171711Z 19013KT 24/09 A3005 RMK A01 T02420085  RH  037%=      5-min Rain = 0
KCR2 171712Z 19012KT 24/09 A3005 RMK A01 T02420086  RH  037%=      5-min Rain = 0
KCR2 171713Z 18013KT 24/09 A3005 RMK A01 T02430086  RH  037%=      5-min Rain = 0
KCR2 171714Z 19012G17KT 24/09 A3005 RMK A01 T02410086  RH  037%=      5-min Rain = 0
KCR2 171715Z 20013KT 24/09 A3005 RMK A01 T02380086  RH  038%=      5-min Rain = 0
KCR2 171716Z 20014KT 24/09 A3005 RMK A01 T02390086  RH  038%=      5-min Rain = 0
KCR2 171717Z 20012KT 24/09 A3005 RMK A01 T02400086  RH  037%=      5-min Rain = 0
KCR2 171718Z 20010KT 24/09 A3005 RMK A01 T02400086  RH  037%=      5-min Rain = 0
KCR2 171719Z 21013KT 24/09 A3005 RMK A01 T02430088  RH  037%=      5-min Rain = 0
KCR2 171720Z 20012KT 24/09 A3005 RMK A01 T02440086  RH  037%=      5-min Rain = 0
KCR2 171721Z 20012KT 24/09 A3005 RMK A01 T02440086  RH  036%=      5-min Rain = 0
KCR2 171722Z 20012KT 24/09 A3005 RMK A01 T02430085  RH  036%=      5-min Rain = 0
KCR2 171723Z 19009KT 24/09 A3005 RMK A01 T02430086  RH  037%=      5-min Rain = 0
KCR2 171724Z 19014KT 25/09 A3005 RMK A01 T02460086  RH  036%=      5-min Rain = 0
KCR2 171725Z 19015KT 25/09 A3004 RMK A01 T02470085  RH  036%=      5-min Rain = 0
KCR2 171726Z 20014KT 25/08 A3004 RMK A01 T02450083  RH  036%=      5-min Rain = 0
KCR2 171727Z 21011KT 25/08 A3005 RMK A01 T02450084  RH  036%=      5-min Rain = 0
KCR2 171728Z 20010KT 25/09 A3004 RMK A01 T02460087  RH  036%=      5-min Rain = 0
KCR2 171729Z 19013KT 25/09 A3004 RMK A01 T02480087  RH  036%=      5-min Rain = 0
KCR2 171730Z 21014KT 25/09 A3004 RMK A01 T02480086  RH  036%=      5-min Rain = 0
KCR2 171731Z 20013KT 25/09 A3004 RMK A01 T02490086  RH  035%=      5-min Rain = 0
KCR2 171732Z 20014KT 25/09 A3004 RMK A01 T02490085  RH  035%=      5-min Rain = 0
KCR2 171733Z 19015KT 25/09 A3004 RMK A01 T02490085  RH  035%=      5-min Rain = 0
KCR2 171734Z 20012KT 25/09 A3004 RMK A01 T02490085  RH  035%=      5-min Rain = 0
KCR2 171735Z 20013KT 25/09 A3004 RMK A01 T02480086  RH  036%=      5-min Rain = 0
KCR2 171736Z 20010KT 25/09 A3004 RMK A01 T02480086  RH  036%=      5-min Rain = 0
KCR2 171737Z 20016KT 25/09 A3004 RMK A01 T02490087  RH  036%=      5-min Rain = 0
KCR2 171738Z 20012KT 25/09 A3004 RMK A01 T02500086  RH  035%=      5-min Rain = 0
KCR2 171739Z 20012G19KT 25/09 A3004 RMK A01 T02500087  RH  035%=      5-min Rain = 0
KCR2 171740Z 20014KT 25/09 A3004 RMK A01 T02510086  RH  035%=      5-min Rain = 0
KCR2 171741Z 20013KT 25/09 A3004 RMK A01 T02520086  RH  035%=      5-min Rain = 0
KCR2 171742Z 20012KT 25/09 A3004 RMK A01 T02520087  RH  035%=      5-min Rain = 0
KCR2 171743Z 20012KT 26/09 A3004 RMK A01 T02550088  RH  035%=      5-min Rain = 0
KCR2 171744Z 19011KT 26/09 A3004 RMK A01 T02560087  RH  034%=      5-min Rain = 0
KCR2 171745Z 20011KT 26/09 A3004 RMK A01 T02550087  RH  035%=      5-min Rain = 0
KCR2 171746Z 20013KT 26/09 A3004 RMK A01 T02560087  RH  034%=      5-min Rain = 0
KCR2 171747Z 19012KT 26/09 A3004 RMK A01 T02580087  RH  034%=      5-min Rain = 0
KCR2 171748Z 19012KT 26/09 A3004 RMK A01 T02600088  RH  034%=      5-min Rain = 0
KCR2 171749Z 19014KT 26/09 A3004 RMK A01 T02620088  RH  033%=      5-min Rain = 0
KCR2 171750Z 20014KT 26/09 A3004 RMK A01 T02610087  RH  033%=      5-min Rain = 0
KCR2 171751Z 20014KT 26/09 A3004 RMK A01 T02580085  RH  033%=      5-min Rain = 0
KCR2 171752Z 20012KT 26/08 A3003 RMK A01 T02550084  RH  034%=      5-min Rain = 0
KCR2 171753Z 21013KT 26/09 A3003 RMK A01 T02570088  RH  034%=      5-min Rain = 0
KCR2 171754Z 19014KT 26/09 A3003 RMK A01 T02620087  RH  033%=      5-min Rain = 0
KCR2 171755Z 20013KT 26/09 A3003 RMK A01 T02620087  RH  033%=      5-min Rain = 0
KCR2 171756Z 21013KT 26/09 A3003 RMK A01 T02610087  RH  033%=      5-min Rain = 0
KCR2 171757Z 19014KT 26/09 A3003 RMK A01 T02610086  RH  033%=      5-min Rain = 0
KCR2 171758Z 19013KT 26/09 A3003 RMK A01 T02610085  RH  033%=      5-min Rain = 0
KCR2 171759Z 20012KT 26/09 A3003 RMK A01 T02620085  RH  033%=      5-min Rain = 0
KCR2 171800Z 19011KT 26/09 A3003 RMK A01 T02640088  RH  033%=      5-min Rain = 0
KCR2 171801Z 20012KT 27/09 A3003 RMK A01 T02670088  RH  032%=      5-min Rain = 0
KCR2 171802Z 21010KT 27/09 A3003 RMK A01 T02680086  RH  032%=      5-min Rain = 0
KCR2 171803Z 20010KT 27/09 A3003 RMK A01 T02670085  RH  032%=      5-min Rain = 0
KCR2 171804Z 20015KT 27/09 A3003 RMK A01 T02680085  RH  032%=      5-min Rain = 0
KCR2 171805Z 21015KT 27/08 A3003 RMK A01 T02680083  RH  031%=      5-min Rain = 0
KCR2 171806Z 19013KT 27/08 A3003 RMK A01 T02660083  RH  031%=      5-min Rain = 0
KCR2 171807Z 20015KT 27/09 A3002 RMK A01 T02690085  RH  031%=      5-min Rain = 0
KCR2 171808Z 20014KT 27/08 A3002 RMK A01 T02670082  RH  031%=      5-min Rain = 0
KCR2 171809Z 20013KT 26/08 A3002 RMK A01 T02640080  RH  031%=      5-min Rain = 0
KCR2 171810Z 20010KT 26/08 A3002 RMK A01 T02630081  RH  031%=      5-min Rain = 0
KCR2 171811Z 21010KT 27/08 A3002 RMK A01 T02660083  RH  032%=      5-min Rain = 0
KCR2 171812Z 21013KT 27/08 A3002 RMK A01 T02690084  RH  031%=      5-min Rain = 0
KCR2 171813Z 21012G17KT 27/09 A3002 RMK A01 T02690085  RH  031%=      5-min Rain = 0
KCR2 171814Z 21014KT 27/09 A3002 RMK A01 T02690085  RH  031%=      5-min Rain = 0
KCR2 171815Z 19015KT 27/09 A3002 RMK A01 T02710085  RH  031%=      5-min Rain = 0
KCR2 171816Z 20014KT 27/08 A3002 RMK A01 T02720084  RH  031%=      5-min Rain = 0
KCR2 171817Z 19012KT 27/08 A3002 RMK A01 T02710083  RH  031%=      5-min Rain = 0
KCR2 171818Z 20014G19KT 27/08 A3002 RMK A01 T02700083  RH  031%=      5-min Rain = 0
KCR2 171819Z 19010KT 27/08 A3002 RMK A01 T02720083  RH  030%=      5-min Rain = 0
KCR2 171820Z 19008KT 27/08 A3002 RMK A01 T02720082  RH  030%=      5-min Rain = 0
KCR2 171821Z 20007KT 27/08 A3002 RMK A01 T02720082  RH  030%=      5-min Rain = 0
KCR2 171822Z 19007KT 27/08 A3002 RMK A01 T02730082  RH  030%=      5-min Rain = 0
KCR2 171823Z 20012KT 28/09 A3002 RMK A01 T02750085  RH  030%=      5-min Rain = 0
KCR2 171824Z 18010KT 28/08 A3002 RMK A01 T02770083  RH  029%=      5-min Rain = 0
KCR2 171825Z 19009KT 28/08 A3001 RMK A01 T02760082  RH  030%=      5-min Rain = 0
KCR2 171826Z 21008KT 28/08 A3001 RMK A01 T02770084  RH  030%=      5-min Rain = 0
KCR2 171827Z 22011G16KT 28/08 A3001 RMK A01 T02810084  RH  029%=      5-min Rain = 0
KCR2 171828Z 21013KT 28/08 A3001 RMK A01 T02810082  RH  029%=      5-min Rain = 0
KCR2 171829Z 21011KT 28/08 A3001 RMK A01 T02770082  RH  029%=      5-min Rain = 0
KCR2 171830Z 20008KT 28/08 A3001 RMK A01 T02760081  RH  029%=      5-min Rain = 0
KCR2 171831Z 22010KT 27/08 A3001 RMK A01 T02740082  RH  030%=      5-min Rain = 0
KCR2 171832Z 22013KT 28/08 A3001 RMK A01 T02770082  RH  029%=      5-min Rain = 0
KCR2 171833Z 21009KT 28/08 A3001 RMK A01 T02780080  RH  029%=      5-min Rain = 0
KCR2 171834Z 22010KT 28/08 A3001 RMK A01 T02770081  RH  029%=      5-min Rain = 0
KCR2 171835Z 20011KT 28/08 A3001 RMK A01 T02800084  RH  029%=      5-min Rain = 0
KCR2 171836Z 18012KT 28/08 A3001 RMK A01 T02820084  RH  029%=      5-min Rain = 0
KCR2 171837Z 19013KT 28/08 A3001 RMK A01 T02820084  RH  029%=      5-min Rain = 0
KCR2 171838Z 20012KT 28/09 A3001 RMK A01 T02810085  RH  029%=      5-min Rain = 0
KCR2 171839Z 19008KT 28/08 A3001 RMK A01 T02790083  RH  029%=      5-min Rain = 0
KCR2 171840Z 21012KT 28/08 A30 RMK A01 T02780083  RH  029%=      5-min Rain = 0
KCR2 171841Z 22009KT 28/08 A30 RMK A01 T02800083  RH  029%=      5-min Rain = 0
KCR2 171842Z 18010KT 28/09 A30 RMK A01 T02820086  RH  029%=      5-min Rain = 0
KCR2 171843Z 19010KT 29/09 A30 RMK A01 T02850086  RH  029%=      5-min Rain = 0
KCR2 171844Z 22011KT 29/08 A30 RMK A01 T02870083  RH  028%=      5-min Rain = 0
KCR2 171845Z 21012KT 29/08 A30 RMK A01 T02900079  RH  027%=      5-min Rain = 0
KCR2 171846Z 21009KT 29/08 A30 RMK A01 T02870080  RH  027%=      5-min Rain = 0
KCR2 171847Z 22014KT 29/08 A30 RMK A01 T02880081  RH  027%=      5-min Rain = 0
KCR2 171848Z 23009KT 29/08 A30 RMK A01 T02900078  RH  026%=      5-min Rain = 0
KCR2 171849Z 22006KT 29/08 A30 RMK A01 T02860077  RH  027%=      5-min Rain = 0
KCR2 171850Z 21011KT 29/08 A30 RMK A01 T02860081  RH  028%=      5-min Rain = 0
KCR2 171851Z 20011KT 29/08 A2999 RMK A01 T02870082  RH  027%=      5-min Rain = 0
KCR2 171852Z 21006KT 29/08 A2999 RMK A01 T02860080  RH  027%=      5-min Rain = 0
KCR2 171853Z 21009KT 28/08 A2999 RMK A01 T02840081  RH  028%=      5-min Rain = 0
KCR2 171854Z 21011KT 29/08 A2999 RMK A01 T02880081  RH  027%=      5-min Rain = 0
KCR2 171855Z 21009KT 29/08 A2999 RMK A01 T02880081  RH  027%=      5-min Rain = 0
KCR2 171856Z 20010KT 29/08 A2999 RMK A01 T02890082  RH  027%=      5-min Rain = 0
KCR2 171857Z 21008KT 29/08 A2999 RMK A01 T02900081  RH  027%=      5-min Rain = 0
KCR2 171858Z 20011KT 29/08 A2999 RMK A01 T02900083  RH  027%=      5-min Rain = 0
KCR2 171859Z 21011KT 29/08 A2999 RMK A01 T02900082  RH  027%=      5-min Rain = 0
KCR2 171900Z 23010KT 29/08 A2999 RMK A01 T02890081  RH  027%=      5-min Rain = 0
KCR2 171901Z 23009KT 29/08 A2999 RMK A01 T02880081  RH  027%=      5-min Rain = 0
KCR2 171902Z 20011KT 29/08 A2999 RMK A01 T02900083  RH  027%=      5-min Rain = 0
KCR2 171903Z 19012KT 29/08 A2999 RMK A01 T02900082  RH  027%=      5-min Rain = 0
KCR2 171904Z 19010KT 29/08 A2999 RMK A01 T02900083  RH  027%=      5-min Rain = 0
KCR2 171905Z 20008KT 29/08 A2999 RMK A01 T02890084  RH  028%=      5-min Rain = 0
KCR2 171906Z 20013KT 29/08 A2998 RMK A01 T02890084  RH  028%=      5-min Rain = 0
KCR2 171907Z 22014KT 29/08 A2998 RMK A01 T02910083  RH  027%=      5-min Rain = 0
KCR2 171908Z 22012KT 29/08 A2998 RMK A01 T02910082  RH  027%=      5-min Rain = 0
KCR2 171909Z 19012KT 29/08 A2998 RMK A01 T02890082  RH  027%=      5-min Rain = 0
KCR2 171910Z 20010KT 29/08 A2998 RMK A01 T02910083  RH  027%=      5-min Rain = 0
KCR2 171911Z 21008KT 29/08 A2998 RMK A01 T02890082  RH  027%=      5-min Rain = 0
KCR2 171912Z 21008KT 29/08 A2998 RMK A01 T02890083  RH  028%=      5-min Rain = 0
KCR2 171913Z 19009KT 29/08 A2998 RMK A01 T02910084  RH  027%=      5-min Rain = 0
KCR2 171914Z 21007KT 29/08 A2998 RMK A01 T02930083  RH  027%=      5-min Rain = 0
KCR2 171915Z 22012KT 29/08 A2997 RMK A01 T02920083  RH  027%=      5-min Rain = 0
KCR2 171916Z 21012KT 30/08 A2998 RMK A01 T02950083  RH  027%=      5-min Rain = 0
KCR2 171917Z 21010KT 30/08 A2998 RMK A01 T02960082  RH  026%=      5-min Rain = 0
KCR2 171918Z 22008KT 29/08 A2997 RMK A01 T02940082  RH  026%=      5-min Rain = 0
KCR2 171919Z 21012KT 29/08 A2997 RMK A01 T02920082  RH  027%=      5-min Rain = 0
KCR2 171920Z 22013KT 29/08 A2997 RMK A01 T02920082  RH  027%=      5-min Rain = 0
KCR2 171921Z 21009KT 29/08 A2997 RMK A01 T02920082  RH  027%=      5-min Rain = 0
KCR2 171922Z 22008KT 29/08 A2997 RMK A01 T02910083  RH  027%=      5-min Rain = 0
KCR2 171923Z 22010KT 29/08 A2997 RMK A01 T02940083  RH  027%=      5-min Rain = 0
KCR2 171924Z 21009KT 30/08 A2997 RMK A01 T02950083  RH  027%=      5-min Rain = 0
KCR2 171925Z 20009KT 30/08 A2997 RMK A01 T02950084  RH  027%=      5-min Rain = 0
KCR2 171926Z 22010KT 30/09 A2997 RMK A01 T02970085  RH  026%=      5-min Rain = 0
KCR2 171927Z 21011KT 30/08 A2997 RMK A01 T03010083  RH  026%=      5-min Rain = 0
KCR2 171928Z 21009KT 30/08 A2997 RMK A01 T03000083  RH  026%=      5-min Rain = 0
KCR2 171929Z 19009KT 30/08 A2997 RMK A01 T03000084  RH  026%=      5-min Rain = 0
KCR2 171930Z 19010KT 30/08 A2997 RMK A01 T03000083  RH  026%=      5-min Rain = 0
KCR2 171931Z 19010G15KT 30/08 A2996 RMK A01 T02970082  RH  026%=      5-min Rain = 0
KCR2 171932Z 20011KT 30/08 A2996 RMK A01 T02980083  RH  026%=      5-min Rain = 0
KCR2 171933Z 21012KT 30/08 A2996 RMK A01 T03000082  RH  026%=      5-min Rain = 0
KCR2 171934Z 22011KT 30/08 A2996 RMK A01 T03000083  RH  026%=      5-min Rain = 0
KCR2 171935Z 23010KT 30/08 A2996 RMK A01 T03000083  RH  026%=      5-min Rain = 0
KCR2 171936Z 19008KT 30/08 A2996 RMK A01 T02990084  RH  026%=      5-min Rain = 0
KCR2 171937Z 21010KT 30/08 A2996 RMK A01 T03010083  RH  026%=      5-min Rain = 0
KCR2 171938Z 22012KT 30/08 A2996 RMK A01 T03030082  RH  025%=      5-min Rain = 0
KCR2 171939Z 22011KT 30/08 A2996 RMK A01 T03040082  RH  025%=      5-min Rain = 0
KCR2 171940Z 23009KT 31/09 A2996 RMK A01 T03050086  RH  025%=      5-min Rain = 0
KCR2 171941Z 21011G16KT 31/09 A2996 RMK A01 T03080085  RH  025%=      5-min Rain = 0
KCR2 171942Z 21011KT 30/08 A2996 RMK A01 T03040080  RH  025%=      5-min Rain = 0
KCR2 171943Z 20011KT 30/08 A2996 RMK A01 T03030080  RH  025%=      5-min Rain = 0
KCR2 171944Z 23007G13KT 30/08 A2996 RMK A01 T03040080  RH  025%=      5-min Rain = 0
KCR2 171945Z 22006KT 30/08 A2995 RMK A01 T03020082  RH  025%=      5-min Rain = 0
KCR2 171946Z 20009KT 30/08 A2995 RMK A01 T03030083  RH  025%=      5-min Rain = 0
KCR2 171947Z 18010KT 31/08 A2995 RMK A01 T03050082  RH  025%=      5-min Rain = 0
KCR2 171948Z 20010KT 30/08 A2995 RMK A01 T03040081  RH  025%=      5-min Rain = 0
KCR2 171949Z 23015KT 31/08 A2995 RMK A01 T03050079  RH  024%=      5-min Rain = 0
KCR2 171950Z 24012KT 31/08 A2995 RMK A01 T03060077  RH  024%=      5-min Rain = 0
KCR2 171951Z 25009KT 31/08 A2995 RMK A01 T03060077  RH  024%=      5-min Rain = 0
KCR2 171952Z 23010KT 31/08 A2995 RMK A01 T03050076  RH  024%=      5-min Rain = 0
KCR2 171953Z 20008KT 31/08 A2995 RMK A01 T03060078  RH  024%=      5-min Rain = 0
KCR2 171954Z 22012KT 31/08 A2995 RMK A01 T03070079  RH  024%=      5-min Rain = 0
KCR2 171955Z 24009KT 31/08 A2995 RMK A01 T03070079  RH  024%=      5-min Rain = 0
KCR2 171956Z 22009KT 31/08 A2995 RMK A01 T03070081  RH  024%=      5-min Rain = 0
KCR2 171957Z 21011KT 31/08 A2995 RMK A01 T03090082  RH  024%=      5-min Rain = 0
KCR2 171958Z 22011KT 31/08 A2994 RMK A01 T03090079  RH  024%=      5-min Rain = 0
KCR2 171959Z 24011KT 31/08 A2995 RMK A01 T03090079  RH  024%=      5-min Rain = 0
KCR2 172000Z 23008KT 31/08 A2995 RMK A01 T03100076  RH  023%=      5-min Rain = 0
KCR2 172001Z 22007KT 31/08 A2994 RMK A01 T03080077  RH  024%=      5-min Rain = 0
KCR2 172002Z 26006KT 31/08 A2994 RMK A01 T03070078  RH  024%=      5-min Rain = 0
KCR2 172003Z 25006KT 31/08 A2994 RMK A01 T03080075  RH  023%=      5-min Rain = 0
KCR2 172004Z 22011KT 31/08 A2994 RMK A01 T03080078  RH  024%=      5-min Rain = 0
KCR2 172005Z 21012KT 31/08 A2994 RMK A01 T03110080  RH  024%=      5-min Rain = 0
KCR2 172006Z 22011KT 31/08 A2994 RMK A01 T03120077  RH  023%=      5-min Rain = 0
KCR2 172007Z 23013G18KT 31/08 A2994 RMK A01 T03100076  RH  023%=      5-min Rain = 0
KCR2 172008Z 22009KT 31/08 A2994 RMK A01 T03100077  RH  023%=      5-min Rain = 0
KCR2 172009Z 24013KT 31/08 A2994 RMK A01 T03110076  RH  023%=      5-min Rain = 0
KCR2 172010Z 23008KT 31/07 A2994 RMK A01 T03110074  RH  023%=      5-min Rain = 0
KCR2 172011Z 22006KT 31/07 A2994 RMK A01 T03100074  RH  023%=      5-min Rain = 0
KCR2 172012Z 24007KT 31/08 A2994 RMK A01 T03110075  RH  023%=      5-min Rain = 0
KCR2 172013Z 23006KT 31/08 A2994 RMK A01 T03110076  RH  023%=      5-min Rain = 0
KCR2 172014Z 22007KT 31/08 A2994 RMK A01 T03120078  RH  023%=      5-min Rain = 0
KCR2 172015Z 19007KT 32/08 A2993 RMK A01 T03160081  RH  023%=      5-min Rain = 0
KCR2 172016Z 19007KT 32/08 A2993 RMK A01 T03150079  RH  023%=      5-min Rain = 0
KCR2 172017Z 19007KT 31/08 A2993 RMK A01 T03140079  RH  023%=      5-min Rain = 0
KCR2 172018Z 23008KT 32/08 A2993 RMK A01 T03170079  RH  023%=      5-min Rain = 0
KCR2 172019Z 24007KT 32/08 A2993 RMK A01 T03180080  RH  023%=      5-min Rain = 0
KCR2 172020Z 25009KT 32/08 A2993 RMK A01 T03180079  RH  023%=      5-min Rain = 0
KCR2 172021Z 26007KT 32/08 A2993 RMK A01 T03200076  RH  022%=      5-min Rain = 0
KCR2 172022Z 24007KT 32/08 A2993 RMK A01 T03190077  RH  022%=      5-min Rain = 0
KCR2 172023Z 23008KT 32/08 A2993 RMK A01 T03210079  RH  022%=      5-min Rain = 0
KCR2 172024Z 22008KT 32/08 A2993 RMK A01 T03210078  RH  022%=      5-min Rain = 0
KCR2 172025Z 21012KT 32/08 A2993 RMK A01 T03210076  RH  022%=      5-min Rain = 0
KCR2 172026Z 21009KT 32/07 A2992 RMK A01 T03190074  RH  022%=      5-min Rain = 0
KCR2 172027Z 24009KT 32/08 A2993 RMK A01 T03170075  RH  022%=      5-min Rain = 0
KCR2 172028Z 25007KT 32/07 A2992 RMK A01 T03180074  RH  022%=      5-min Rain = 0
KCR2 172029Z 23009KT 32/08 A2992 RMK A01 T03180076  RH  022%=      5-min Rain = 0
KCR2 172030Z 22009KT 32/08 A2992 RMK A01 T03210078  RH  022%=      5-min Rain = 0
KCR2 172031Z 23010KT 33/08 A2992 RMK A01 T03250079  RH  022%=      5-min Rain = 0
KCR2 172032Z 23009KT 33/08 A2992 RMK A01 T03250077  RH  021%=      5-min Rain = 0
KCR2 172033Z 25008KT 32/07 A2992 RMK A01 T03240073  RH  021%=      5-min Rain = 0
KCR2 172034Z 26009KT 32/07 A2992 RMK A01 T03230069  RH  021%=      5-min Rain = 0
KCR2 172035Z 23009G14KT 32/07 A2992 RMK A01 T03230073  RH  021%=      5-min Rain = 0
KCR2 172036Z 23010KT 33/08 A2992 RMK A01 T03250078  RH  021%=      5-min Rain = 0
KCR2 172037Z 23008KT 33/08 A2992 RMK A01 T03260079  RH  022%=      5-min Rain = 0
KCR2 172038Z 22007KT 33/08 A2992 RMK A01 T03250076  RH  021%=      5-min Rain = 0
KCR2 172039Z 19008KT 32/08 A2992 RMK A01 T03240076  RH  022%=      5-min Rain = 0
KCR2 172040Z 19008KT 33/07 A2992 RMK A01 T03250074  RH  021%=      5-min Rain = 0
KCR2 172041Z 20006KT 32/07 A2992 RMK A01 T03230074  RH  021%=      5-min Rain = 0
KCR2 172042Z 21007KT 32/08 A2992 RMK A01 T03220076  RH  022%=      5-min Rain = 0
KCR2 172043Z 19005KT 33/08 A2992 RMK A01 T03250076  RH  021%=      5-min Rain = 0
KCR2 172044Z 20006KT 33/08 A2991 RMK A01 T03260076  RH  021%=      5-min Rain = 0
KCR2 172045Z 23006KT 33/08 A2991 RMK A01 T03260075  RH  021%=      5-min Rain = 0
KCR2 172046Z 25010KT 33/07 A2991 RMK A01 T03260074  RH  021%=      5-min Rain = 0
KCR2 172047Z 25007KT 32/07 A2991 RMK A01 T03240072  RH  021%=      5-min Rain = 0
KCR2 172048Z 25008KT 32/07 A2991 RMK A01 T03230073  RH  021%=      5-min Rain = 0
KCR2 172049Z 26007KT 32/07 A2991 RMK A01 T03230073  RH  021%=      5-min Rain = 0
KCR2 172050Z 24009KT 32/07 A2991 RMK A01 T03240073  RH  021%=      5-min Rain = 0
KCR2 172051Z 23007KT 32/07 A2991 RMK A01 T03240071  RH  021%=      5-min Rain = 0
KCR2 172052Z 21009KT 33/07 A2991 RMK A01 T03250069  RH  020%=      5-min Rain = 0
KCR2 172053Z 19010KT 33/07 A2991 RMK A01 T03270069  RH  020%=      5-min Rain = 0
KCR2 172054Z 20009KT 33/07 A2991 RMK A01 T03280069  RH  020%=      5-min Rain = 0
KCR2 172055Z 21007KT 33/07 A2991 RMK A01 T03270069  RH  020%=      5-min Rain = 0
KCR2 172056Z 20009KT 33/07 A2991 RMK A01 T03300068  RH  020%=      5-min Rain = 0
KCR2 172057Z 21008KT 33/07 A2991 RMK A01 T03300067  RH  019%=      5-min Rain = 0
KCR2 172058Z 22007KT 33/07 A2991 RMK A01 T03300068  RH  020%=      5-min Rain = 0
KCR2 172059Z 27006KT 33/07 A2991 RMK A01 T03330068  RH  019%=      5-min Rain = 0
KCR2 172100Z 26007KT 33/06 A2991 RMK A01 T03340061  RH  018%=      5-min Rain = 0
KCR2 172101Z 26008KT 33/06 A2991 RMK A01 T03340058  RH  018%=      5-min Rain = 0
KCR2 172102Z 24008KT 33/06 A2991 RMK A01 T03330057  RH  018%=      5-min Rain = 0
KCR2 172103Z 22008KT 33/06 A2991 RMK A01 T03340060  RH  018%=      5-min Rain = 0
KCR2 172104Z 21008KT 33/06 A2991 RMK A01 T03340060  RH  018%=      5-min Rain = 0
KCR2 172105Z 24009KT 34/06 A2991 RMK A01 T03350058  RH  018%=      5-min Rain = 0
KCR2 172106Z 27009KT 34/06 A2991 RMK A01 T03350058  RH  018%=      5-min Rain = 0
KCR2 172107Z 26010KT 33/06 A2991 RMK A01 T03320055  RH  018%=      5-min Rain = 0
KCR2 172108Z 25012KT 33/06 A2991 RMK A01 T03300055  RH  018%=      5-min Rain = 0
KCR2 172109Z 26009KT 33/05 A2991 RMK A01 T03300054  RH  018%=      5-min Rain = 0
KCR2 172110Z 25010KT 33/06 A2991 RMK A01 T03330055  RH  018%=      5-min Rain = 0
KCR2 172111Z 26009KT 34/05 A2991 RMK A01 T03360051  RH  017%=      5-min Rain = 0
KCR2 172112Z 25011KT 34/05 A2991 RMK A01 T03370048  RH  016%=      5-min Rain = 0
KCR2 172113Z 26013KT 34/04 A2991 RMK A01 T03370044  RH  016%=      5-min Rain = 0
KCR2 172114Z 27010KT 33/04 A2991 RMK A01 T03340044  RH  016%=      5-min Rain = 0
KCR2 172115Z 27011KT 33/04 A2991 RMK A01 T03320044  RH  016%=      5-min Rain = 0
KCR2 172116Z 27011KT 33/04 A2991 RMK A01 T03320044  RH  016%=      5-min Rain = 0
KCR2 172117Z 25012KT 33/04 A2991 RMK A01 T03330044  RH  016%=      5-min Rain = 0
KCR2 172118Z 25010G15KT 33/05 A299 RMK A01 T03330046  RH  017%=      5-min Rain = 0
KCR2 172119Z 26007G13KT 33/05 A299 RMK A01 T03310046  RH  017%=      5-min Rain = 0
KCR2 172120Z 26013KT 33/05 A299 RMK A01 T03320047  RH  017%=      5-min Rain = 0
KCR2 172121Z 26011KT 33/05 A299 RMK A01 T03330047  RH  017%=      5-min Rain = 0
KCR2 172122Z 26011KT 33/05 A299 RMK A01 T03340046  RH  016%=      5-min Rain = 0
KCR2 172123Z 25009KT 34/04 A299 RMK A01 T03350044  RH  016%=      5-min Rain = 0
KCR2 172124Z 24009KT 34/04 A299 RMK A01 T03360044  RH  016%=      5-min Rain = 0
KCR2 172125Z 24008KT 34/04 A299 RMK A01 T03350044  RH  016%=      5-min Rain = 0
KCR2 172126Z 25008KT 33/05 A299 RMK A01 T03330045  RH  016%=      5-min Rain = 0
KCR2 172127Z 25013KT 33/04 A299 RMK A01 T03330042  RH  016%=      5-min Rain = 0
KCR2 172128Z 25011KT 34/04 A299 RMK A01 T03350038  RH  016%=      5-min Rain = 0
KCR2 172129Z 27010KT 34/04 A299 RMK A01 T03360036  RH  015%=      5-min Rain = 0
KCR2 172130Z 25014KT 34/04 A299 RMK A01 T03370038  RH  015%=      5-min Rain = 0
KCR2 172131Z 25013KT 34/04 A299 RMK A01 T03380038  RH  015%=      5-min Rain = 0
KCR2 172132Z 25012KT 34/04 A299 RMK A01 T03380037  RH  015%=      5-min Rain = 0
KCR2 172133Z 26012KT 34/04 A299 RMK A01 T03380038  RH  015%=      5-min Rain = 0
KCR2 172134Z 26009KT 34/04 A299 RMK A01 T03380039  RH  015%=      5-min Rain = 0
KCR2 172135Z 25009KT 34/04 A299 RMK A01 T03370040  RH  016%=      5-min Rain = 0
KCR2 172136Z 25008KT 34/04 A299 RMK A01 T03370041  RH  016%=      5-min Rain = 0
KCR2 172137Z 24008KT 34/04 A299 RMK A01 T03390038  RH  015%=      5-min Rain = 0
KCR2 172138Z 26007KT 34/04 A299 RMK A01 T03370037  RH  015%=      5-min Rain = 0
KCR2 172139Z 28009KT 34/03 A299 RMK A01 T03360034  RH  015%=      5-min Rain = 0
KCR2 172140Z 26010KT 34/03 A299 RMK A01 T03360034  RH  015%=      5-min Rain = 0
KCR2 172141Z 25008KT 34/04 A299 RMK A01 T03360036  RH  015%=      5-min Rain = 0
KCR2 172142Z 25009KT 34/04 A299 RMK A01 T03380040  RH  015%=      5-min Rain = 0
KCR2 172143Z 26008KT 34/04 A2989 RMK A01 T03390038  RH  015%=      5-min Rain = 0
KCR2 172144Z 26008KT 34/04 A2989 RMK A01 T03380038  RH  015%=      5-min Rain = 0
KCR2 172145Z 24012KT 34/04 A2989 RMK A01 T03370038  RH  015%=      5-min Rain = 0
KCR2 172146Z 25014KT 34/04 A2989 RMK A01 T03370039  RH  015%=      5-min Rain = 0
KCR2 172147Z 25013KT 34/04 A299 RMK A01 T03370038  RH  015%=      5-min Rain = 0
KCR2 172148Z 25011KT 34/04 A2989 RMK A01 T03360037  RH  015%=      5-min Rain = 0
KCR2 172149Z 26010KT 34/04 A2989 RMK A01 T03350038  RH  015%=      5-min Rain = 0
KCR2 172150Z 25011KT 34/04 A2989 RMK A01 T03370040  RH  016%=      5-min Rain = 0
KCR2 172151Z 26009KT 34/04 A2989 RMK A01 T03380040  RH  015%=      5-min Rain = 0
KCR2 172152Z 25006KT 34/04 A2989 RMK A01 T03370039  RH  015%=      5-min Rain = 0
KCR2 172153Z 25008KT 34/04 A2989 RMK A01 T03380040  RH  015%=      5-min Rain = 0
KCR2 172154Z 24011G16KT 34/05 A2989 RMK A01 T03400046  RH  016%=      5-min Rain = 0
KCR2 172155Z 22011KT 34/07 A2989 RMK A01 T03390068  RH  019%=      5-min Rain = 0
KCR2 172156Z 20009KT 34/07 A2989 RMK A01 T03360072  RH  019%=      5-min Rain = 0
KCR2 172157Z 20010KT 34/07 A2989 RMK A01 T03360069  RH  019%=      5-min Rain = 0
KCR2 172158Z 20010KT 34/07 A2989 RMK A01 T03350073  RH  020%=      5-min Rain = 0
KCR2 172159Z 21010KT 34/06 A2989 RMK A01 T03350061  RH  018%=      5-min Rain = 0
KCR2 172200Z 20008KT 34/06 A2989 RMK A01 T03360057  RH  018%=      5-min Rain = 0
KCR2 172201Z 20008KT 34/07 A2989 RMK A01 T03370071  RH  019%=      5-min Rain = 0
KCR2 172202Z 20007KT 34/07 A2989 RMK A01 T03370072  RH  019%=      5-min Rain = 0
KCR2 172203Z 18007KT 34/07 A2989 RMK A01 T03370073  RH  020%=      5-min Rain = 0
KCR2 172204Z 18008KT 34/07 A2989 RMK A01 T03350072  RH  020%=      5-min Rain = 0
KCR2 172205Z 20007KT 34/07 A2989 RMK A01 T03350073  RH  020%=      5-min Rain = 0
KCR2 172206Z 19007KT 34/07 A2989 RMK A01 T03360069  RH  019%=      5-min Rain = 0
KCR2 172207Z 20008KT 34/07 A2989 RMK A01 T03370072  RH  020%=      5-min Rain = 0
KCR2 172208Z 22006KT 34/07 A2989 RMK A01 T03370072  RH  019%=      5-min Rain = 0
KCR2 172209Z 25006KT 34/06 A2989 RMK A01 T03360059  RH  018%=      5-min Rain = 0
KCR2 172210Z 25007KT 34/03 A2989 RMK A01 T03360033  RH  015%=      5-min Rain = 0
KCR2 172211Z 25009KT 34/03 A2989 RMK A01 T03380033  RH  015%=      5-min Rain = 0
KCR2 172212Z 25008KT 34/03 A2989 RMK A01 T03380033  RH  015%=      5-min Rain = 0
KCR2 172213Z 26008KT 34/03 A2989 RMK A01 T03390032  RH  015%=      5-min Rain = 0
KCR2 172214Z 26008KT 34/03 A2989 RMK A01 T03400032  RH  014%=      5-min Rain = 0
KCR2 172215Z 26008KT 34/03 A2989 RMK A01 T03400030  RH  014%=      5-min Rain = 0
KCR2 172216Z 24008KT 34/03 A2989 RMK A01 T03390030  RH  014%=      5-min Rain = 0
KCR2 172217Z 24010KT 34/03 A2989 RMK A01 T03380031  RH  014%=      5-min Rain = 0
KCR2 172218Z 24007KT 34/03 A2989 RMK A01 T03380031  RH  015%=      5-min Rain = 0
KCR2 172219Z 26009KT 34/03 A2989 RMK A01 T03380031  RH  015%=      5-min Rain = 0
KCR2 172220Z 26009KT 34/03 A2989 RMK A01 T03370028  RH  014%=      5-min Rain = 0
KCR2 172221Z 25011KT 34/03 A2989 RMK A01 T03370029  RH  014%=      5-min Rain = 0
KCR2 172222Z 25011KT 34/03 A2989 RMK A01 T03370031  RH  015%=      5-min Rain = 0
KCR2 172223Z 26010KT 34/03 A2988 RMK A01 T03380031  RH  015%=      5-min Rain = 0
KCR2 172224Z 25007KT 34/03 A2988 RMK A01 T03370030  RH  014%=      5-min Rain = 0
KCR2 172225Z 25007KT 34/03 A2988 RMK A01 T03380032  RH  015%=      5-min Rain = 0
KCR2 172226Z 24008KT 34/03 A2988 RMK A01 T03400034  RH  015%=      5-min Rain = 0
KCR2 172227Z 25010KT 34/03 A2988 RMK A01 T03400034  RH  015%=      5-min Rain = 0
KCR2 172228Z 26011KT 34/03 A2988 RMK A01 T03400033  RH  015%=      5-min Rain = 0
KCR2 172229Z 26011KT 34/03 A2988 RMK A01 T03390032  RH  014%=      5-min Rain = 0
KCR2 172230Z 26009KT 34/03 A2988 RMK A01 T03380031  RH  014%=      5-min Rain = 0
KCR2 172231Z 26007KT 34/03 A2988 RMK A01 T03380031  RH  014%=      5-min Rain = 0
KCR2 172232Z 26006KT 34/03 A2988 RMK A01 T03380030  RH  014%=      5-min Rain = 0
KCR2 172233Z 26006KT 34/03 A2988 RMK A01 T03380029  RH  014%=      5-min Rain = 0
KCR2 172234Z 27009KT 34/03 A2988 RMK A01 T03390028  RH  014%=      5-min Rain = 0
KCR2 172235Z 26010KT 34/02 A2988 RMK A01 T03400023  RH  014%=      5-min Rain = 0
KCR2 172236Z 25009KT 34/02 A2988 RMK A01 T03390023  RH  014%=      5-min Rain = 0
KCR2 172237Z 24010KT 34/03 A2988 RMK A01 T03400025  RH  014%=      5-min Rain = 0
KCR2 172238Z 25010KT 34/03 A2988 RMK A01 T03410025  RH  014%=      5-min Rain = 0
KCR2 172239Z 25010KT 34/02 A2988 RMK A01 T03400022  RH  013%=      5-min Rain = 0
KCR2 172240Z 26010KT 34/02 A2988 RMK A01 T03400021  RH  013%=      5-min Rain = 0
KCR2 172241Z 25010KT 34/02 A2988 RMK A01 T03400021  RH  013%=      5-min Rain = 0
KCR2 172242Z 25010KT 34/03 A2988 RMK A01 T03400025  RH  014%=      5-min Rain = 0
KCR2 172243Z 24009KT 34/03 A2988 RMK A01 T03400027  RH  014%=      5-min Rain = 0
KCR2 172244Z 23008KT 34/03 A2988 RMK A01 T03390031  RH  014%=      5-min Rain = 0
KCR2 172245Z 24009KT 34/03 A2988 RMK A01 T03390030  RH  014%=      5-min Rain = 0
KCR2 172246Z 25007KT 34/02 A2988 RMK A01 T03390024  RH  014%=      5-min Rain = 0
KCR2 172247Z 25010KT 34/02 A2988 RMK A01 T03380022  RH  014%=      5-min Rain = 0
KCR2 172248Z 25008KT 34/02 A2988 RMK A01 T03380019  RH  013%=      5-min Rain = 0
KCR2 172249Z 24007KT 34/02 A2988 RMK A01 T03380020  RH  013%=      5-min Rain = 0
KCR2 172250Z 24009KT 34/02 A2988 RMK A01 T03390020  RH  013%=      5-min Rain = 0
KCR2 172251Z 24008KT 34/02 A2988 RMK A01 T03380019  RH  013%=      5-min Rain = 0
KCR2 172252Z 24007KT 34/02 A2988 RMK A01 T03380022  RH  014%=      5-min Rain = 0
KCR2 172253Z 23008KT 34/03 A2988 RMK A01 T03380025  RH  014%=      5-min Rain = 0
KCR2 172254Z 23008KT 34/02 A2988 RMK A01 T03380020  RH  013%=      5-min Rain = 0
KCR2 172255Z 23007KT 34/02 A2988 RMK A01 T03370020  RH  014%=      5-min Rain = 0
KCR2 172256Z 24007KT 34/03 A2988 RMK A01 T03360025  RH  014%=      5-min Rain = 0
KCR2 172257Z 25008KT 34/02 A2988 RMK A01 T03360022  RH  014%=      5-min Rain = 0
KCR2 172258Z 24007KT 34/02 A2988 RMK A01 T03360019  RH  013%=      5-min Rain = 0
KCR2 172259Z 26006KT 34/02 A2988 RMK A01 T03360020  RH  014%=      5-min Rain = 0
KCR2 172300Z 25005KT 34/02 A2988 RMK A01 T03370018  RH  013%=      5-min Rain = 0
KCR2 172301Z 24005KT 34/02 A2988 RMK A01 T03370019  RH  013%=      5-min Rain = 0
KCR2 172302Z 24005KT 34/02 A2988 RMK A01 T03370021  RH  014%=      5-min Rain = 0
KCR2 172303Z 23006KT 34/03 A2988 RMK A01 T03370026  RH  014%=      5-min Rain = 0
KCR2 172304Z 23008KT 34/03 A2988 RMK A01 T03370026  RH  014%=      5-min Rain = 0
KCR2 172305Z 23007KT 34/02 A2988 RMK A01 T03360024  RH  014%=      5-min Rain = 0
KCR2 172306Z 23006KT 34/03 A2988 RMK A01 T03350025  RH  014%=      5-min Rain = 0
KCR2 172307Z 23005KT 34/03 A2988 RMK A01 T03350026  RH  014%=      5-min Rain = 0
KCR2 172308Z 22005KT 34/03 A2988 RMK A01 T03350027  RH  014%=      5-min Rain = 0
KCR2 172309Z 23004KT 34/03 A2988 RMK A01 T03350025  RH  014%=      5-min Rain = 0
KCR2 172310Z 23003KT 34/03 A2988 RMK A01 T03350026  RH  014%=      5-min Rain = 0
KCR2 172311Z 21004KT 34/03 A2988 RMK A01 T03350027  RH  014%=      5-min Rain = 0
KCR2 172312Z 23005KT 34/03 A2988 RMK A01 T03350029  RH  015%=      5-min Rain = 0
KCR2 172313Z 22006KT 34/03 A2988 RMK A01 T03350028  RH  014%=      5-min Rain = 0
KCR2 172314Z 23006KT 33/03 A2988 RMK A01 T03340027  RH  014%=      5-min Rain = 0
KCR2 172315Z 24005KT 33/03 A2988 RMK A01 T03340029  RH  015%=      5-min Rain = 0
KCR2 172316Z 24004KT 33/03 A2988 RMK A01 T03340031  RH  015%=      5-min Rain = 0
KCR2 172317Z 23004KT 33/03 A2988 RMK A01 T03330031  RH  015%=      5-min Rain = 0
KCR2 172318Z 23005KT 33/03 A2988 RMK A01 T03330031  RH  015%=      5-min Rain = 0
KCR2 172319Z 24005KT 33/03 A2988 RMK A01 T03330032  RH  015%=      5-min Rain = 0
KCR2 172320Z 24005KT 33/03 A2987 RMK A01 T03330033  RH  015%=      5-min Rain = 0
KCR2 172321Z 24005KT 33/03 A2987 RMK A01 T03320030  RH  015%=      5-min Rain = 0
KCR2 172322Z 25007KT 33/03 A2987 RMK A01 T03330032  RH  015%=      5-min Rain = 0
KCR2 172323Z 23007KT 33/03 A2987 RMK A01 T03320031  RH  015%=      5-min Rain = 0
KCR2 172324Z 24008KT 33/03 A2987 RMK A01 T03320033  RH  015%=      5-min Rain = 0
KCR2 172325Z 22008KT 33/03 A2987 RMK A01 T03320033  RH  015%=      5-min Rain = 0
KCR2 172326Z 21008KT 33/04 A2987 RMK A01 T03310040  RH  016%=      5-min Rain = 0
KCR2 172327Z 19010KT 33/07 A2987 RMK A01 T03280070  RH  020%=      5-min Rain = 0
KCR2 172328Z 19009KT 32/08 A2987 RMK A01 T03240077  RH  022%=      5-min Rain = 0
KCR2 172329Z 19007KT 32/08 A2987 RMK A01 T03210078  RH  022%=      5-min Rain = 0
KCR2 172330Z 19009KT 32/08 A2987 RMK A01 T03200079  RH  022%=      5-min Rain = 0
KCR2 172331Z 19010KT 32/08 A2987 RMK A01 T03190080  RH  023%=      5-min Rain = 0
KCR2 172332Z 17011KT 32/08 A2987 RMK A01 T03180082  RH  023%=      5-min Rain = 0
KCR2 172333Z 17013KT 32/08 A2987 RMK A01 T03170083  RH  023%=      5-min Rain = 0
KCR2 172334Z 17013KT 32/08 A2987 RMK A01 T03150084  RH  024%=      5-min Rain = 0
KCR2 172335Z 17013KT 31/08 A2987 RMK A01 T03140084  RH  024%=      5-min Rain = 0
KCR2 172336Z 17013KT 31/08 A2987 RMK A01 T03130083  RH  024%=      5-min Rain = 0
KCR2 172337Z 17013KT 31/08 A2987 RMK A01 T03130084  RH  024%=      5-min Rain = 0
KCR2 172338Z 17013KT 31/08 A2987 RMK A01 T03120084  RH  024%=      5-min Rain = 0
KCR2 172339Z 17013KT 31/08 A2988 RMK A01 T03120084  RH  024%=      5-min Rain = 0
KCR2 172340Z 17014KT 31/08 A2988 RMK A01 T03110083  RH  024%=      5-min Rain = 0
KCR2 172341Z 17014KT 31/08 A2988 RMK A01 T03100084  RH  024%=      5-min Rain = 0
KCR2 172342Z 17013KT 31/08 A2988 RMK A01 T03100084  RH  025%=      5-min Rain = 0
KCR2 172343Z 17011KT 31/09 A2988 RMK A01 T03090085  RH  025%=      5-min Rain = 0
KCR2 172344Z 17012KT 31/09 A2988 RMK A01 T03080085  RH  025%=      5-min Rain = 0
KCR2 172345Z 16011KT 31/09 A2988 RMK A01 T03080085  RH  025%=      5-min Rain = 0
KCR2 172346Z 16013KT 31/09 A2988 RMK A01 T03080085  RH  025%=      5-min Rain = 0
KCR2 172347Z 16014KT 31/09 A2988 RMK A01 T03070086  RH  025%=      5-min Rain = 0
KCR2 172348Z 16012KT 31/09 A2988 RMK A01 T03060086  RH  025%=      5-min Rain = 0
KCR2 172349Z 16013KT 31/09 A2988 RMK A01 T03050086  RH  026%=      5-min Rain = 0
KCR2 172350Z 16012KT 31/09 A2988 RMK A01 T03050086  RH  026%=      5-min Rain = 0
KCR2 172351Z 16012KT 30/09 A2988 RMK A01 T03040086  RH  026%=      5-min Rain = 0
KCR2 172352Z 16011G16KT 30/09 A2988 RMK A01 T03030086  RH  026%=      5-min Rain = 0
KCR2 172353Z 16014KT 30/09 A2988 RMK A01 T03030086  RH  026%=      5-min Rain = 0
KCR2 172354Z 16012KT 30/09 A2988 RMK A01 T03020086  RH  026%=      5-min Rain = 0
KCR2 172355Z 15011KT 30/09 A2988 RMK A01 T03010086  RH  026%=      5-min Rain = 0
KCR2 172356Z 16011KT 30/09 A2988 RMK A01 T03010087  RH  026%=      5-min Rain = 0
KCR2 172357Z 17013KT 30/09 A2988 RMK A01 T02990087  RH  027%=      5-min Rain = 0
KCR2 172358Z 17011KT 30/09 A2988 RMK A01 T02990088  RH  027%=      5-min Rain = 0
KCR2 172359Z 16012KT 30/09 A2988 RMK A01 T02980087  RH  027%=      5-min Rain = 0
KCR2 180000Z 17012KT 30/09 A2988 RMK A01 T02960087  RH  027%=      5-min Rain = 0
KCR2 180001Z 17015KT 30/09 A2987 RMK A01 T02960087  RH  027%=      5-min Rain = 0
KCR2 180002Z 16013KT 30/09 A2987 RMK A01 T02960088  RH  027%=      5-min Rain = 0
KCR2 180003Z 16015KT 30/09 A2987 RMK A01 T02950088  RH  027%=      5-min Rain = 0
KCR2 180004Z 16014KT 30/09 A2987 RMK A01 T02950088  RH  027%=      5-min Rain = 0
KCR2 180005Z 16014KT 30/09 A2988 RMK A01 T02950088  RH  027%=      5-min Rain = 0
KCR2 180006Z 16013KT 29/09 A2988 RMK A01 T02940088  RH  028%=      5-min Rain = 0
KCR2 180007Z 16012KT 29/09 A2988 RMK A01 T02930088  RH  028%=      5-min Rain = 0
KCR2 180008Z 16013KT 29/09 A2988 RMK A01 T02930088  RH  028%=      5-min Rain = 0
KCR2 180009Z 16014KT 29/09 A2988 RMK A01 T02920088  RH  028%=      5-min Rain = 0
KCR2 180010Z 16014KT 29/09 A2988 RMK A01 T02910088  RH  028%=      5-min Rain = 0
KCR2 180011Z 16016KT 29/09 A2988 RMK A01 T02900089  RH  028%=      5-min Rain = 0
KCR2 180012Z 16013KT 29/09 A2988 RMK A01 T02900089  RH  028%=      5-min Rain = 0
KCR2 180013Z 16012KT 29/09 A2988 RMK A01 T02890088  RH  028%=      5-min Rain = 0
KCR2 180014Z 16016KT 29/09 A2988 RMK A01 T02890089  RH  029%=      5-min Rain = 0
KCR2 180015Z 16015KT 29/09 A2988 RMK A01 T02880089  RH  029%=      5-min Rain = 0
KCR2 180016Z 16015KT 29/09 A2988 RMK A01 T02880089  RH  029%=      5-min Rain = 0
KCR2 180017Z 16016KT 29/09 A2988 RMK A01 T02880088  RH  029%=      5-min Rain = 0
KCR2 180018Z 16014KT 29/09 A2988 RMK A01 T02870089  RH  029%=      5-min Rain = 0
KCR2 180019Z 17013KT 29/09 A2988 RMK A01 T02870089  RH  029%=      5-min Rain = 0
KCR2 180020Z 17016KT 29/09 A2988 RMK A01 T02860089  RH  029%=      5-min Rain = 0
KCR2 180021Z 17013KT 29/09 A2988 RMK A01 T02860089  RH  029%=      5-min Rain = 0
KCR2 180022Z 17013KT 29/09 A2988 RMK A01 T02850088  RH  029%=      5-min Rain = 0
KCR2 180023Z 16016KT 28/09 A2988 RMK A01 T02840089  RH  029%=      5-min Rain = 0
KCR2 180024Z 17014KT 28/09 A2988 RMK A01 T02840089  RH  029%=      5-min Rain = 0
KCR2 180025Z 17014KT 28/09 A2988 RMK A01 T02830089  RH  030%=      5-min Rain = 0
KCR2 180026Z 17014KT 28/09 A2988 RMK A01 T02830089  RH  030%=      5-min Rain = 0
KCR2 180027Z 17014KT 28/09 A2988 RMK A01 T02820089  RH  030%=      5-min Rain = 0
KCR2 180028Z 17016KT 28/09 A2988 RMK A01 T02820089  RH  030%=      5-min Rain = 0
KCR2 180029Z 17014KT 28/09 A2988 RMK A01 T02820089  RH  030%=      5-min Rain = 0
KCR2 180030Z 17013KT 28/09 A2988 RMK A01 T02810089  RH  030%=      5-min Rain = 0
KCR2 180031Z 17014KT 28/09 A2988 RMK A01 T02800089  RH  030%=      5-min Rain = 0
KCR2 180032Z 17014KT 28/09 A2988 RMK A01 T02800089  RH  030%=      5-min Rain = 0
KCR2 180033Z 17015KT 28/09 A2988 RMK A01 T02790089  RH  030%=      5-min Rain = 0
KCR2 180034Z 17015KT 28/09 A2988 RMK A01 T02790089  RH  030%=      5-min Rain = 0
KCR2 180035Z 17014KT 28/09 A2988 RMK A01 T02790089  RH  030%=      5-min Rain = 0
KCR2 180036Z 17016KT 28/09 A2988 RMK A01 T02780089  RH  030%=      5-min Rain = 0
KCR2 180037Z 17015KT 28/09 A2988 RMK A01 T02780089  RH  030%=      5-min Rain = 0
KCR2 180038Z 17014KT 28/09 A2988 RMK A01 T02780089  RH  030%=      5-min Rain = 0
KCR2 180039Z 17013KT 28/09 A2988 RMK A01 T02770088  RH  030%=      5-min Rain = 0
KCR2 180040Z 17014KT 28/09 A2988 RMK A01 T02770089  RH  031%=      5-min Rain = 0
KCR2 180041Z 17015KT 28/09 A2988 RMK A01 T02760089  RH  031%=      5-min Rain = 0
KCR2 180042Z 17016KT 28/09 A2988 RMK A01 T02760089  RH  031%=      5-min Rain = 0
KCR2 180043Z 17016KT 28/09 A2988 RMK A01 T02760089  RH  031%=      5-min Rain = 0
KCR2 180044Z 18014KT 28/09 A2988 RMK A01 T02760089  RH  031%=      5-min Rain = 0
KCR2 180045Z 18014KT 28/09 A2988 RMK A01 T02760089  RH  031%=      5-min Rain = 0
KCR2 180046Z 18016KT 28/09 A2988 RMK A01 T02750089  RH  031%=      5-min Rain = 0
KCR2 180047Z 17018G24KT 28/09 A2988 RMK A01 T02750089  RH  031%=      5-min Rain = 0
KCR2 180048Z 18018KT 28/09 A2988 RMK A01 T02750089  RH  031%=      5-min Rain = 0
KCR2 180049Z 18018KT 28/09 A2988 RMK A01 T02750089  RH  031%=      5-min Rain = 0
KCR2 180050Z 17018KT 28/09 A2988 RMK A01 T02750089  RH  031%=      5-min Rain = 0
KCR2 180051Z 17017KT 28/09 A2988 RMK A01 T02750089  RH  031%=      5-min Rain = 0
KCR2 180052Z 18015KT 28/09 A2988 RMK A01 T02750089  RH  031%=      5-min Rain = 0
KCR2 180053Z 18016KT 27/09 A2988 RMK A01 T02740089  RH  031%=      5-min Rain = 0
KCR2 180054Z 18018KT 27/09 A2988 RMK A01 T02730089  RH  031%=      5-min Rain = 0
KCR2 180055Z 18019KT 27/09 A2988 RMK A01 T02720089  RH  032%=      5-min Rain = 0
KCR2 180056Z 18019KT 27/09 A2988 RMK A01 T02730089  RH  032%=      5-min Rain = 0
KCR2 180057Z 18017KT 27/09 A2988 RMK A01 T02730090  RH  032%=      5-min Rain = 0
KCR2 180058Z 18017KT 27/09 A2988 RMK A01 T02720089  RH  032%=      5-min Rain = 0
KCR2 180059Z 18018G23KT 27/09 A2988 RMK A01 T02720090  RH  032%=      5-min Rain = 0
KCR2 180100Z 18017KT 27/09 A2988 RMK A01 T02710089  RH  032%=      5-min Rain = 0
KCR2 180101Z 18017KT 27/09 A2988 RMK A01 T02710089  RH  032%=      5-min Rain = 0
KCR2 180102Z 18013KT 27/09 A2988 RMK A01 T02700089  RH  032%=      5-min Rain = 0
KCR2 180103Z 18016KT 27/09 A2988 RMK A01 T02700089  RH  032%=      5-min Rain = 0
KCR2 180104Z 18018G24KT 27/09 A2988 RMK A01 T02690089  RH  032%=      5-min Rain = 0
KCR2 180105Z 18018KT 27/09 A2988 RMK A01 T02690089  RH  032%=      5-min Rain = 0
KCR2 180106Z 18017KT 27/09 A2988 RMK A01 T02690090  RH  032%=      5-min Rain = 0
KCR2 180107Z 18020KT 27/09 A2988 RMK A01 T02690089  RH  032%=      5-min Rain = 0
KCR2 180108Z 18021KT 27/09 A2988 RMK A01 T02690089  RH  032%=      5-min Rain = 0
KCR2 180109Z 18018KT 27/09 A2988 RMK A01 T02700090  RH  032%=      5-min Rain = 0
KCR2 180110Z 18017KT 27/09 A2988 RMK A01 T02690089  RH  032%=      5-min Rain = 0
KCR2 180111Z 18017G22KT 27/09 A2989 RMK A01 T02680089  RH  032%=      5-min Rain = 0
KCR2 180112Z 18017KT 27/09 A2989 RMK A01 T02670089  RH  032%=      5-min Rain = 0
KCR2 180113Z 18019KT 27/09 A2989 RMK A01 T02670089  RH  033%=      5-min Rain = 0
KCR2 180114Z 18018KT 27/09 A2989 RMK A01 T02670089  RH  033%=      5-min Rain = 0
KCR2 180115Z 18018KT 27/09 A2989 RMK A01 T02670089  RH  033%=      5-min Rain = 0
KCR2 180116Z 18017KT 27/09 A2989 RMK A01 T02670089  RH  033%=      5-min Rain = 0
KCR2 180117Z 18018KT 27/09 A2989 RMK A01 T02670089  RH  033%=      5-min Rain = 0
KCR2 180118Z 18020G25KT 27/09 A2988 RMK A01 T02660089  RH  033%=      5-min Rain = 0
KCR2 180119Z 18020G25KT 27/09 A2989 RMK A01 T02660089  RH  033%=      5-min Rain = 0
KCR2 180120Z 18019KT 27/09 A2989 RMK A01 T02660090  RH  033%=      5-min Rain = 0
KCR2 180121Z 19018KT 27/09 A2989 RMK A01 T02660090  RH  033%=      5-min Rain = 0
KCR2 180122Z 19016KT 27/09 A2989 RMK A01 T02660089  RH  033%=      5-min Rain = 0
KCR2 180123Z 19020KT 27/09 A2989 RMK A01 T02650089  RH  033%=      5-min Rain = 0
KCR2 180124Z 18019G24KT 27/09 A2989 RMK A01 T02650089  RH  033%=      5-min Rain = 0
KCR2 180125Z 18018KT 27/09 A2989 RMK A01 T02660090  RH  033%=      5-min Rain = 0
KCR2 180126Z 18019G24KT 27/09 A2989 RMK A01 T02650089  RH  033%=      5-min Rain = 0
KCR2 180127Z 18021KT 27/09 A2989 RMK A01 T02650090  RH  033%=      5-min Rain = 0
KCR2 180128Z 18019KT 26/09 A2989 RMK A01 T02640089  RH  033%=      5-min Rain = 0
KCR2 180129Z 19020KT 26/09 A2989 RMK A01 T02640090  RH  033%=      5-min Rain = 0
KCR2 180130Z 18019KT 26/09 A2989 RMK A01 T02640090  RH  033%=      5-min Rain = 0
KCR2 180131Z 19018KT 26/09 A2989 RMK A01 T02640090  RH  033%=      5-min Rain = 0
KCR2 180132Z 18019KT 26/09 A2989 RMK A01 T02630090  RH  034%=      5-min Rain = 0
KCR2 180133Z 18019KT 26/09 A2989 RMK A01 T02630090  RH  034%=      5-min Rain = 0
KCR2 180134Z 18020KT 26/09 A2989 RMK A01 T02630091  RH  034%=      5-min Rain = 0
KCR2 180135Z 19020KT 26/09 A2989 RMK A01 T02630091  RH  034%=      5-min Rain = 0
KCR2 180136Z 18019KT 26/09 A2989 RMK A01 T02630091  RH  034%=      5-min Rain = 0
KCR2 180137Z 18017KT 26/09 A2989 RMK A01 T02620091  RH  034%=      5-min Rain = 0
KCR2 180138Z 18019KT 26/09 A2989 RMK A01 T02620092  RH  034%=      5-min Rain = 0
KCR2 180139Z 18017KT 26/09 A2989 RMK A01 T02610092  RH  034%=      5-min Rain = 0
KCR2 180140Z 18020KT 26/09 A2989 RMK A01 T02600092  RH  034%=      5-min Rain = 0
KCR2 180141Z 18019KT 26/09 A2989 RMK A01 T02600092  RH  035%=      5-min Rain = 0
KCR2 180142Z 18021KT 26/09 A2989 RMK A01 T02600093  RH  035%=      5-min Rain = 0
KCR2 180143Z 18020KT 26/09 A2989 RMK A01 T02600093  RH  035%=      5-min Rain = 0
KCR2 180144Z 18019KT 26/09 A2989 RMK A01 T02600093  RH  035%=      5-min Rain = 0
KCR2 180145Z 18020KT 26/09 A2989 RMK A01 T02600094  RH  035%=      5-min Rain = 0
KCR2 180146Z 18021KT 26/09 A2989 RMK A01 T02600094  RH  035%=      5-min Rain = 0
KCR2 180147Z 18021KT 26/09 A2989 RMK A01 T02600094  RH  035%=      5-min Rain = 0
KCR2 180148Z 18021KT 26/09 A2989 RMK A01 T02600094  RH  035%=      5-min Rain = 0
KCR2 180149Z 18021KT 26/10 A2989 RMK A01 T02600095  RH  035%=      5-min Rain = 0
KCR2 180150Z 18020KT 26/09 A2989 RMK A01 T02590094  RH  035%=      5-min Rain = 0
KCR2 180151Z 18022KT 26/10 A2989 RMK A01 T02590095  RH  036%=      5-min Rain = 0
KCR2 180152Z 18021G27KT 26/10 A2989 RMK A01 T02590095  RH  036%=      5-min Rain = 0
KCR2 180153Z 18021KT 26/10 A2989 RMK A01 T02580096  RH  036%=      5-min Rain = 0
KCR2 180154Z 18021KT 26/10 A2989 RMK A01 T02580096  RH  036%=      5-min Rain = 0
KCR2 180155Z 18018KT 26/10 A2989 RMK A01 T02570096  RH  036%=      5-min Rain = 0
KCR2 180156Z 18021G26KT 26/10 A2989 RMK A01 T02560096  RH  036%=      5-min Rain = 0
KCR2 180157Z 18020G26KT 26/10 A2989 RMK A01 T02560097  RH  037%=      5-min Rain = 0
KCR2 180158Z 18022KT 26/10 A2989 RMK A01 T02560097  RH  037%=      5-min Rain = 0
KCR2 180159Z 18019G24KT 26/10 A2989 RMK A01 T02560098  RH  037%=      5-min Rain = 0
KCR2 180200Z 18019KT 26/10 A2989 RMK A01 T02560098  RH  037%=      5-min Rain = 0
KCR2 180201Z 18021G27KT 26/10 A2989 RMK A01 T02550099  RH  037%=      5-min Rain = 0
KCR2 180202Z 18020KT 26/10 A2989 RMK A01 T02560099  RH  037%=      5-min Rain = 0
KCR2 180203Z 18019KT 26/10 A2989 RMK A01 T02550099  RH  037%=      5-min Rain = 0
KCR2 180204Z 18017KT 26/10 A2989 RMK A01 T02550099  RH  037%=      5-min Rain = 0
KCR2 180205Z 18019KT 26/10 A2989 RMK A01 T02550099  RH  037%=      5-min Rain = 0
KCR2 180206Z 18021KT 25/10 A2989 RMK A01 T02540099  RH  038%=      5-min Rain = 0
KCR2 180207Z 19022KT 25/10 A2989 RMK A01 T02540100  RH  038%=      5-min Rain = 0
KCR2 180208Z 18020KT 26/10 A2989 RMK A01 T02550100  RH  038%=      5-min Rain = 0
KCR2 180209Z 18019KT 25/10 A2989 RMK A01 T02540100  RH  038%=      5-min Rain = 0
KCR2 180210Z 18018KT 25/10 A2989 RMK A01 T02530100  RH  038%=      5-min Rain = 0
KCR2 180211Z 18020KT 25/10 A2989 RMK A01 T02530101  RH  038%=      5-min Rain = 0
KCR2 180212Z 18020KT 25/10 A2989 RMK A01 T02530102  RH  038%=      5-min Rain = 0
KCR2 180213Z 18022KT 25/10 A2989 RMK A01 T02530102  RH  039%=      5-min Rain = 0
KCR2 180214Z 18019KT 25/10 A2989 RMK A01 T02530102  RH  039%=      5-min Rain = 0
KCR2 180215Z 18019G24KT 25/10 A2989 RMK A01 T02520103  RH  039%=      5-min Rain = 0
KCR2 180216Z 19019G24KT 25/10 A2989 RMK A01 T02520103  RH  039%=      5-min Rain = 0
KCR2 180217Z 19020G26KT 25/10 A2989 RMK A01 T02510103  RH  039%=      5-min Rain = 0
KCR2 180218Z 18021KT 25/10 A2989 RMK A01 T02510103  RH  039%=      5-min Rain = 0
KCR2 180219Z 18019KT 25/10 A299 RMK A01 T02510103  RH  039%=      5-min Rain = 0
KCR2 180220Z 18021KT 25/10 A2989 RMK A01 T02510103  RH  039%=      5-min Rain = 0
KCR2 180221Z 19019KT 25/10 A299 RMK A01 T02510103  RH  039%=      5-min Rain = 0
KCR2 180222Z 18020G25KT 25/10 A299 RMK A01 T02510103  RH  039%=      5-min Rain = 0
KCR2 180223Z 18020G25KT 25/10 A2989 RMK A01 T02510104  RH  039%=      5-min Rain = 0
KCR2 180224Z 18021KT 25/10 A2989 RMK A01 T02500103  RH  040%=      5-min Rain = 0
KCR2 180225Z 19019G24KT 25/10 A2989 RMK A01 T02500104  RH  040%=      5-min Rain = 0
KCR2 180226Z 19021KT 25/10 A2989 RMK A01 T02490104  RH  040%=      5-min Rain = 0
KCR2 180227Z 19019KT 25/10 A2989 RMK A01 T02490104  RH  040%=      5-min Rain = 0
KCR2 180228Z 18023KT 25/11 A2989 RMK A01 T02490105  RH  040%=      5-min Rain = 0
KCR2 180229Z 18020KT 25/11 A2989 RMK A01 T02490105  RH  040%=      5-min Rain = 0
KCR2 180230Z 18022KT 25/11 A2989 RMK A01 T02480105  RH  040%=      5-min Rain = 0
KCR2 180231Z 18023KT 25/11 A2989 RMK A01 T02480105  RH  040%=      5-min Rain = 0
KCR2 180232Z 19019G25KT 25/11 A2989 RMK A01 T02480105  RH  041%=      5-min Rain = 0
KCR2 180233Z 19021KT 25/11 A2989 RMK A01 T02480106  RH  041%=      5-min Rain = 0
KCR2 180234Z 19020G26KT 25/11 A2989 RMK A01 T02480106  RH  041%=      5-min Rain = 0
KCR2 180235Z 19022KT 25/11 A2989 RMK A01 T02470106  RH  041%=      5-min Rain = 0
KCR2 180236Z 19021KT 25/11 A2989 RMK A01 T02470106  RH  041%=      5-min Rain = 0
KCR2 180237Z 19017KT 25/11 A2989 RMK A01 T02470106  RH  041%=      5-min Rain = 0
KCR2 180238Z 18020KT 25/11 A2989 RMK A01 T02460106  RH  041%=      5-min Rain = 0
KCR2 180239Z 19020KT 25/11 A2989 RMK A01 T02460107  RH  042%=      5-min Rain = 0
KCR2 180240Z 19022G28KT 25/11 A2989 RMK A01 T02450107  RH  042%=      5-min Rain = 0
KCR2 180241Z 18021KT 25/11 A2989 RMK A01 T02450107  RH  042%=      5-min Rain = 0
KCR2 180242Z 18020KT 25/11 A2989 RMK A01 T02450107  RH  042%=      5-min Rain = 0
KCR2 180243Z 19020KT 25/11 A2989 RMK A01 T02450107  RH  042%=      5-min Rain = 0
KCR2 180244Z 19019KT 25/11 A2989 RMK A01 T02450107  RH  042%=      5-min Rain = 0
KCR2 180245Z 19019G24KT 24/11 A2989 RMK A01 T02440107  RH  042%=      5-min Rain = 0
KCR2 180246Z 19019KT 24/11 A2989 RMK A01 T02440107  RH  042%=      5-min Rain = 0
KCR2 180247Z 19019KT 24/11 A2989 RMK A01 T02440108  RH  042%=      5-min Rain = 0
KCR2 180248Z 19021KT 24/11 A2989 RMK A01 T02440108  RH  042%=      5-min Rain = 0
KCR2 180249Z 19020G25KT 24/11 A2989 RMK A01 T02430108  RH  043%=      5-min Rain = 0
KCR2 180250Z 19018G24KT 24/11 A299 RMK A01 T02430108  RH  043%=      5-min Rain = 0
KCR2 180251Z 19020G25KT 24/11 A2989 RMK A01 T02420108  RH  043%=      5-min Rain = 0
KCR2 180252Z 19016KT 24/11 A299 RMK A01 T02420108  RH  043%=      5-min Rain = 0
KCR2 180253Z 18021G28KT 24/11 A2989 RMK A01 T02420108  RH  043%=      5-min Rain = 0
KCR2 180254Z 19020G25KT 24/11 A2989 RMK A01 T02420108  RH  043%=      5-min Rain = 0
KCR2 180255Z 19019KT 24/11 A2989 RMK A01 T02420108  RH  043%=      5-min Rain = 0
KCR2 180256Z 18021G26KT 24/11 A299 RMK A01 T02420108  RH  043%=      5-min Rain = 0
KCR2 180257Z 19019KT 24/11 A2989 RMK A01 T02420109  RH  043%=      5-min Rain = 0
KCR2 180258Z 18018G23KT 24/11 A299 RMK A01 T02420109  RH  043%=      5-min Rain = 0
KCR2 180259Z 19021G26KT 24/11 A2989 RMK A01 T02410109  RH  043%=      5-min Rain = 0
KCR2 180300Z 19022KT 24/11 A2989 RMK A01 T02410109  RH  043%=      5-min Rain = 0
KCR2 180301Z 18022KT 24/11 A2989 RMK A01 T02410109  RH  043%=      5-min Rain = 0
KCR2 180302Z 19020KT 24/11 A299 RMK A01 T02410109  RH  043%=      5-min Rain = 0
KCR2 180303Z 18022KT 24/11 A2989 RMK A01 T02410109  RH  043%=      5-min Rain = 0
KCR2 180304Z 19022KT 24/11 A2989 RMK A01 T02410109  RH  044%=      5-min Rain = 0
KCR2 180305Z 19020KT 24/11 A2989 RMK A01 T02410109  RH  044%=      5-min Rain = 0
KCR2 180306Z 18019G24KT 24/11 A299 RMK A01 T02400109  RH  044%=      5-min Rain = 0
KCR2 180307Z 19023KT 24/11 A299 RMK A01 T02400110  RH  044%=      5-min Rain = 0
KCR2 180308Z 18021KT 24/11 A299 RMK A01 T02400110  RH  044%=      5-min Rain = 0
KCR2 180309Z 19021KT 24/11 A299 RMK A01 T02400110  RH  044%=      5-min Rain = 0
KCR2 180310Z 18020KT 24/11 A299 RMK A01 T02400110  RH  044%=      5-min Rain = 0
KCR2 180311Z 19020KT 24/11 A299 RMK A01 T02400110  RH  044%=      5-min Rain = 0
KCR2 180312Z 19021KT 24/11 A299 RMK A01 T02400110  RH  044%=      5-min Rain = 0
KCR2 180313Z 19022KT 24/11 A299 RMK A01 T02400110  RH  044%=      5-min Rain = 0
KCR2 180314Z 19017KT 24/11 A299 RMK A01 T02400110  RH  044%=      5-min Rain = 0
KCR2 180315Z 19021KT 24/11 A299 RMK A01 T02390110  RH  044%=      5-min Rain = 0
KCR2 180316Z 19019KT 24/11 A299 RMK A01 T02390110  RH  044%=      5-min Rain = 0
KCR2 180317Z 18019KT 24/11 A299 RMK A01 T02390110  RH  044%=      5-min Rain = 0
KCR2 180318Z 19023KT 24/11 A299 RMK A01 T02380110  RH  044%=      5-min Rain = 0
KCR2 180319Z 19021KT 24/11 A299 RMK A01 T02380110  RH  044%=      5-min Rain = 0
KCR2 180320Z 19020G25KT 24/11 A299 RMK A01 T02390111  RH  044%=      5-min Rain = 0
KCR2 180321Z 19021KT 24/11 A299 RMK A01 T02380111  RH  045%=      5-min Rain = 0
KCR2 180322Z 18020KT 24/11 A299 RMK A01 T02380111  RH  045%=      5-min Rain = 0
KCR2 180323Z 19019KT 24/11 A299 RMK A01 T02380111  RH  045%=      5-min Rain = 0
KCR2 180324Z 18020G26KT 24/11 A299 RMK A01 T02380112  RH  045%=      5-min Rain = 0
KCR2 180325Z 18024G29KT 24/11 A299 RMK A01 T02370112  RH  045%=      5-min Rain = 0
KCR2 180326Z 19024KT 24/11 A299 RMK A01 T02380112  RH  045%=      5-min Rain = 0
KCR2 180327Z 19023G28KT 24/11 A299 RMK A01 T02380113  RH  045%=      5-min Rain = 0
KCR2 180328Z 19022KT 24/11 A299 RMK A01 T02380113  RH  045%=      5-min Rain = 0
KCR2 180329Z 19019KT 24/11 A299 RMK A01 T02370113  RH  045%=      5-min Rain = 0
KCR2 180330Z 18021G26KT 24/11 A299 RMK A01 T02370113  RH  046%=      5-min Rain = 0
KCR2 180331Z 18022KT 24/11 A299 RMK A01 T02370113  RH  046%=      5-min Rain = 0
KCR2 180332Z 19023KT 24/11 A299 RMK A01 T02370113  RH  046%=      5-min Rain = 0
KCR2 180333Z 18021G26KT 24/11 A299 RMK A01 T02360113  RH  046%=      5-min Rain = 0
KCR2 180334Z 18022KT 24/11 A299 RMK A01 T02370113  RH  046%=      5-min Rain = 0
KCR2 180335Z 19023KT 24/11 A299 RMK A01 T02370113  RH  046%=      5-min Rain = 0
KCR2 180336Z 19022KT 24/11 A299 RMK A01 T02370113  RH  046%=      5-min Rain = 0
KCR2 180337Z 19022KT 24/11 A299 RMK A01 T02370114  RH  046%=      5-min Rain = 0
KCR2 180338Z 18020KT 24/11 A299 RMK A01 T02370113  RH  046%=      5-min Rain = 0
KCR2 180339Z 18019KT 24/11 A299 RMK A01 T02360113  RH  046%=      5-min Rain = 0
KCR2 180340Z 19021KT 24/11 A299 RMK A01 T02360113  RH  046%=      5-min Rain = 0
KCR2 180341Z 19020G25KT 24/11 A299 RMK A01 T02360113  RH  046%=      5-min Rain = 0
KCR2 180342Z 18024KT 24/11 A299 RMK A01 T02360114  RH  046%=      5-min Rain = 0
KCR2 180343Z 19020G25KT 24/11 A299 RMK A01 T02360114  RH  046%=      5-min Rain = 0
KCR2 180344Z 19022KT 24/11 A299 RMK A01 T02350114  RH  046%=      5-min Rain = 0
KCR2 180345Z 19022KT 24/11 A2991 RMK A01 T02350114  RH  046%=      5-min Rain = 0
KCR2 180346Z 19023G30KT 24/11 A299 RMK A01 T02350114  RH  046%=      5-min Rain = 0
KCR2 180347Z 18022KT 24/11 A299 RMK A01 T02350114  RH  047%=      5-min Rain = 0
KCR2 180348Z 18021KT 24/12 A2991 RMK A01 T02350115  RH  047%=      5-min Rain = 0
KCR2 180349Z 18019KT 24/12 A2991 RMK A01 T02350115  RH  047%=      5-min Rain = 0
KCR2 180350Z 18022KT 23/12 A299 RMK A01 T02340115  RH  047%=      5-min Rain = 0
KCR2 180351Z 18022KT 23/12 A299 RMK A01 T02340115  RH  047%=      5-min Rain = 0
KCR2 180352Z 18023KT 23/12 A299 RMK A01 T02340115  RH  047%=      5-min Rain = 0
KCR2 180353Z 19022KT 23/12 A299 RMK A01 T02340115  RH  047%=      5-min Rain = 0
KCR2 180354Z 19021KT 23/12 A299 RMK A01 T02340116  RH  047%=      5-min Rain = 0
KCR2 180355Z 19017G22KT 23/12 A2991 RMK A01 T02340116  RH  048%=      5-min Rain = 0
KCR2 180356Z 19022KT 23/12 A299 RMK A01 T02330116  RH  048%=      5-min Rain = 0
KCR2 180357Z 19021G26KT 23/12 A2991 RMK A01 T02330117  RH  048%=      5-min Rain = 0
KCR2 180358Z 18020G26KT 23/12 A2991 RMK A01 T02320117  RH  048%=      5-min Rain = 0
KCR2 180359Z 18023KT 23/12 A2991 RMK A01 T02330118  RH  048%=      5-min Rain = 0
KCR2 180400Z 19021G27KT 23/12 A2991 RMK A01 T02320118  RH  049%=      5-min Rain = 0
KCR2 180401Z 18020KT 23/12 A2991 RMK A01 T02320118  RH  049%=      5-min Rain = 0
KCR2 180402Z 18020KT 23/12 A2991 RMK A01 T02320119  RH  049%=      5-min Rain = 0
KCR2 180403Z 19018KT 23/12 A2991 RMK A01 T02320119  RH  049%=      5-min Rain = 0
KCR2 180404Z 18021KT 23/12 A2991 RMK A01 T02310118  RH  049%=      5-min Rain = 0
KCR2 180405Z 19022KT 23/12 A2991 RMK A01 T02310119  RH  049%=      5-min Rain = 0
KCR2 180406Z 19021G26KT 23/12 A2991 RMK A01 T02320119  RH  049%=      5-min Rain = 0
KCR2 180407Z 19020KT 23/12 A2991 RMK A01 T02320119  RH  049%=      5-min Rain = 0
KCR2 180408Z 19021KT 23/12 A2991 RMK A01 T02320120  RH  049%=      5-min Rain = 0
KCR2 180409Z 19021KT 23/12 A2991 RMK A01 T02310120  RH  049%=      5-min Rain = 0
KCR2 180410Z 19021KT 23/12 A2991 RMK A01 T02310120  RH  050%=      5-min Rain = 0
KCR2 180411Z 19021G26KT 23/12 A2991 RMK A01 T02310120  RH  050%=      5-min Rain = 0
KCR2 180412Z 19020KT 23/12 A2991 RMK A01 T02310120  RH  050%=      5-min Rain = 0
KCR2 180413Z 19021KT 23/12 A2991 RMK A01 T02310119  RH  050%=      5-min Rain = 0
KCR2 180414Z 18018G24KT 23/12 A2991 RMK A01 T02310120  RH  050%=      5-min Rain = 0
KCR2 180415Z 19018KT 23/12 A2991 RMK A01 T02300120  RH  050%=      5-min Rain = 0
KCR2 180416Z 19021KT 23/12 A2991 RMK A01 T02290120  RH  050%=      5-min Rain = 0
KCR2 180417Z 18021KT 23/12 A2991 RMK A01 T02300120  RH  050%=      5-min Rain = 0
KCR2 180418Z 19021KT 23/12 A2991 RMK A01 T02300120  RH  050%=      5-min Rain = 0
KCR2 180419Z 18019KT 23/12 A2991 RMK A01 T02300120  RH  050%=      5-min Rain = 0
KCR2 180420Z 18019KT 23/12 A2991 RMK A01 T02300120  RH  050%=      5-min Rain = 0
KCR2 180421Z 18023KT 23/12 A2991 RMK A01 T02290121  RH  050%=      5-min Rain = 0
KCR2 180422Z 18021KT 23/12 A2991 RMK A01 T02290121  RH  050%=      5-min Rain = 0
KCR2 180423Z 19022KT 23/12 A2991 RMK A01 T02300121  RH  050%=      5-min Rain = 0
KCR2 180424Z 19022KT 23/12 A2991 RMK A01 T02300121  RH  050%=      5-min Rain = 0
KCR2 180425Z 19020G25KT 23/12 A2991 RMK A01 T02300121  RH  050%=      5-min Rain = 0
KCR2 180426Z 19017KT 23/12 A2991 RMK A01 T02290121  RH  050%=      5-min Rain = 0
KCR2 180427Z 19018KT 23/12 A2991 RMK A01 T02290121  RH  051%=      5-min Rain = 0
KCR2 180428Z 18019KT 23/12 A2991 RMK A01 T02280121  RH  051%=      5-min Rain = 0
KCR2 180429Z 19019KT 23/12 A2991 RMK A01 T02280121  RH  051%=      5-min Rain = 0
KCR2 180430Z 19019G25KT 23/12 A2991 RMK A01 T02280121  RH  051%=      5-min Rain = 0
KCR2 180431Z 18019G24KT 23/12 A2991 RMK A01 T02290121  RH  051%=      5-min Rain = 0
KCR2 180432Z 18018KT 23/12 A2991 RMK A01 T02280121  RH  051%=      5-min Rain = 0
KCR2 180433Z 19019KT 23/12 A2992 RMK A01 T02280122  RH  051%=      5-min Rain = 0
KCR2 180434Z 18022KT 23/12 A2991 RMK A01 T02280122  RH  051%=      5-min Rain = 0
KCR2 180435Z 18021KT 23/12 A2991 RMK A01 T02280123  RH  051%=      5-min Rain = 0
KCR2 180436Z 19019KT 23/12 A2991 RMK A01 T02280122  RH  051%=      5-min Rain = 0
KCR2 180437Z 19018KT 23/12 A2991 RMK A01 T02280123  RH  051%=      5-min Rain = 0
KCR2 180438Z 19020KT 23/12 A2991 RMK A01 T02270122  RH  051%=      5-min Rain = 0
KCR2 180439Z 19020KT 23/12 A2991 RMK A01 T02280123  RH  052%=      5-min Rain = 0
KCR2 180440Z 18019G26KT 23/12 A2991 RMK A01 T02270123  RH  052%=      5-min Rain = 0
KCR2 180441Z 18019KT 23/12 A2991 RMK A01 T02270123  RH  052%=      5-min Rain = 0
KCR2 180442Z 18020G25KT 23/12 A2991 RMK A01 T02270123  RH  052%=      5-min Rain = 0
KCR2 180443Z 18020G26KT 23/12 A2991 RMK A01 T02270122  RH  052%=      5-min Rain = 0
KCR2 180444Z 18021KT 23/12 A2991 RMK A01 T02270123  RH  052%=      5-min Rain = 0
KCR2 180445Z 19019KT 23/12 A2991 RMK A01 T02270123  RH  052%=      5-min Rain = 0
KCR2 180446Z 19020KT 23/12 A2991 RMK A01 T02270123  RH  052%=      5-min Rain = 0
KCR2 180447Z 18022KT 23/12 A2991 RMK A01 T02270123  RH  052%=      5-min Rain = 0
KCR2 180448Z 19022KT 23/12 A2991 RMK A01 T02270123  RH  052%=      5-min Rain = 0
KCR2 180449Z 19017G23KT 23/12 A2991 RMK A01 T02270123  RH  052%=      5-min Rain = 0
KCR2 180450Z 18021G26KT 23/12 A2991 RMK A01 T02270123  RH  052%=      5-min Rain = 0
KCR2 180451Z 19021G26KT 23/12 A2991 RMK A01 T02270123  RH  052%=      5-min Rain = 0
KCR2 180452Z 19020KT 23/12 A2991 RMK A01 T02270123  RH  052%=      5-min Rain = 0
KCR2 180453Z 19021KT 23/12 A2991 RMK A01 T02270123  RH  052%=      5-min Rain = 0
KCR2 180454Z 19021KT 23/12 A2991 RMK A01 T02270123  RH  052%=      5-min Rain = 0
KCR2 180455Z 19020KT 23/12 A2991 RMK A01 T02260122  RH  052%=      5-min Rain = 0
KCR2 180456Z 19018G23KT 23/12 A2991 RMK A01 T02270123  RH  052%=      5-min Rain = 0
KCR2 180457Z 19021G26KT 23/12 A2991 RMK A01 T02260123  RH  052%=      5-min Rain = 0
KCR2 180458Z 19021G26KT 23/12 A2991 RMK A01 T02260123  RH  052%=      5-min Rain = 0
KCR2 180459Z 18020KT 23/12 A2991 RMK A01 T02260122  RH  052%=      5-min Rain = 0

Page generated in 0.0698 seconds.